Flight Track Log - Related Links

Times and Time Zones

All times are in EST time to prevent confusion due to time zone crossing. See the SIA21 flight status page for this flight to view local times or setup timezone preferences in your user account.

Time Position Orientation Groundspeed Altitude Reporting Facility
EST Latitude Longitude Course Direction KTS MPH feet Rate Location/Type
Fri 11:20:04 PM 40.7250 -74.1480 26° Northeast 186 214 1,000  Level FlightAware ADS-B
Fri 11:20:27 PM 40.7420 -74.1330 34° Northeast 191 220 1,800 1,294 Climbing FlightAware ADS-B
Fri 11:20:55 PM 40.7637 -74.1133 35° Northeast 221 254 2,100 837 Climbing FlightAware ADS-B
Fri 11:21:10 PM 40.7776 -74.1010 34° Northeast 240 276 2,400 1,429 Climbing FlightAware ADS-B
Fri 11:21:37 PM 40.8038 -74.0790 32° Northeast 254 292 3,100 2,143 Climbing FlightAware ADS-B
Fri 11:21:52 PM 40.8188 -74.0665 32° Northeast 258 297 3,900 3,200 Climbing FlightAware ADS-B
Fri 11:22:07 PM 40.8340 -74.0533 33° Northeast 259 298 4,700 2,800 Climbing FlightAware ADS-B
Fri 11:22:22 PM 40.8493 -74.0402 33° Northeast 260 299 5,300 2,438 Climbing FlightAware ADS-B
Fri 11:22:39 PM 40.8658 -74.0261 33° Northeast 264 304 6,000 2,483 Climbing FlightAware ADS-B
Fri 11:22:51 PM 40.8785 -74.0154 32° Northeast 267 307 6,500 2,333 Climbing FlightAware ADS-B
Fri 11:22:57 PM 40.8846 -74.0096 36° Northeast 272 313 6,700 2,000 Climbing FlightAware ADS-B
Fri 11:23:00 PM 40.8877 -74.0063 39° Northeast 274 315 6,800 2,000 Climbing FlightAware ADS-B
Fri 11:23:03 PM 40.8904 -74.0027 45° Northeast 276 318 6,900 1,622 Climbing FlightAware ADS-B
Fri 11:23:37 PM 40.9184 -73.9551 52° Northeast 306 352 7,800 1,347 Climbing FlightAware ADS-B
Fri 11:23:52 PM 40.9309 -73.9316 55° Northeast 321 369 8,000 1,071 Climbing FlightAware ADS-B
Fri 11:24:05 PM 40.9424 -73.9097 55° Northeast 332 382 8,300 1,125 Climbing FlightAware ADS-B
Fri 11:24:24 PM 40.9598 -73.8784 54° Northeast 348 400 8,600 1,105 Climbing FlightAware ADS-B
Fri 11:24:43 PM 40.9783 -73.8455 53° Northeast 360 414 9,000 2,073 Climbing FlightAware ADS-B
Fri 11:25:19 PM 41.0154 -73.7812 53° Northeast 362 417 10,500 2,197 Climbing FlightAware ADS-B
Fri 11:25:54 PM 41.0520 -73.7180 52° Northeast 378 435 11,600 1,846 Climbing FlightAware ADS-B
Fri 11:26:11 PM 41.0701 -73.6870 52° Northeast 384 442 12,100 1,800 Climbing FlightAware ADS-B (KSNC)
Fri 11:27:24 PM 41.1500 -73.5470 53° Northeast 407 468 14,300 1,842 Climbing FlightAware ADS-B
Fri 11:27:52 PM 41.1736 -73.5057 53° Northeast 410 472 15,200 1,846 Climbing FlightAware ADS-B (KSNC)
Fri 11:28:29 PM 41.2272 -73.4152 52° Northeast 409 471 16,300 1,853 Climbing FlightAware ADS-B (KSNC)
Fri 11:29:00 PM 41.2648 -73.3564 50° Northeast 406 467 17,300 1,545 Climbing FlightAware ADS-B (KSNC)
Fri 11:29:35 PM 41.3073 -73.2891 50° Northeast 415 478 18,000 1,200 Climbing FlightAware ADS-B (KSNC)
Fri 11:30:05 PM 41.3452 -73.2282 50° Northeast 420 483 18,600 1,500 Climbing FlightAware ADS-B (KSNC)
Fri 11:30:51 PM 41.4024 -73.1357 50° Northeast 420 483 19,900 1,403 Climbing FlightAware ADS-B (KSNC)
Fri 11:31:22 PM 41.4405 -73.0742 50° Northeast 428 493 20,400 935 Climbing FlightAware ADS-B (KSNC)
Fri 11:32:08 PM 41.4959 -72.9845 50° Northeast 437 503 21,100 935 Climbing FlightAware ADS-B (KSNC)
Fri 11:32:39 PM 41.5387 -72.9149 51° Northeast 443 510 21,600 1,231 Climbing FlightAware ADS-B (KSNC)
Fri 11:33:26 PM 41.5978 -72.8183 51° Northeast 446 513 22,700 1,200 Climbing FlightAware ADS-B (KSNC)
Fri 11:34:04 PM 41.6499 -72.7331 51° Northeast 449 517 23,300 1,068 Climbing FlightAware ADS-B (KSNC)
Fri 11:34:39 PM 41.6944 -72.6601 51° Northeast 448 516 24,000 1,054 Climbing FlightAware ADS-B (KSNC)
Fri 11:35:18 PM 41.7465 -72.5744 51° Northeast 456 525 24,600 771 Climbing FlightAware ADS-B (KSNC)
Fri 11:35:49 PM 41.7878 -72.5066 51° Northeast 462 532 24,900 762 Climbing FlightAware ADS-B (KSNC)
Fri 11:36:21 PM 41.8314 -72.4344 51° Northeast 465 535 25,400 904 Climbing FlightAware ADS-B (KSNC)
Fri 11:37:02 PM 41.8865 -72.3428 51° Northeast 467 537 26,000 904 Climbing FlightAware ADS-B (KSNC)
Fri 11:37:34 PM 41.9281 -72.2737 51° Northeast 470 541 26,500 952 Climbing FlightAware ADS-B (KSNC)
Fri 11:38:05 PM 41.9723 -72.2001 51° Northeast 472 543 27,000 868 Climbing FlightAware ADS-B (KSNC)
Fri 11:38:50 PM 42.0341 -72.0970 51° Northeast 477 549 27,600 1,031 Climbing FlightAware ADS-B
Fri 11:39:09 PM 42.0609 -72.0518 51° Northeast 468 539 28,100 1,455 Climbing FlightAware ADS-B
Fri 11:39:23 PM 42.0795 -72.0206 51° Northeast 469 540 28,400 774 Climbing FlightAware ADS-B
Fri 11:39:40 PM 42.1031 -71.9810 51° Northeast 473 544 28,500 766 Climbing FlightAware ADS-B
Fri 11:40:10 PM 42.1440 -71.9124 51° Northeast 478 550 29,000 1,300 Climbing FlightAware ADS-B (KSNC)
Fri 11:40:40 PM 42.1859 -71.8416 51° Northeast 474 545 29,800 1,500 Climbing FlightAware ADS-B (KSNC)
Fri 11:40:46 PM 42.1938 -71.8282 51° Northeast 474 545 29,900 486 Climbing FlightAware ADS-B
Fri 11:41:17 PM 42.2331 -71.7619 51° Northeast 480 552 30,100 656 Climbing FlightAware ADS-B (KSNC)
Fri 11:41:50 PM 42.2583 -71.7194 51° Northeast 480 552 30,600 1,091 Climbing FlightAware ADS-B
Fri 11:42:12 PM 42.3121 -71.6279 52° Northeast 474 545 31,100 1,065 Climbing FlightAware ADS-B
Fri 11:42:52 PM 42.3679 -71.5328 51° Northeast 478 550 31,700 600 Climbing FlightAware ADS-B
Fri 11:43:22 PM 42.4095 -71.4619 52° Northeast 490 564 31,800 400 Climbing FlightAware ADS-B
Fri 11:43:52 PM 42.4516 -71.3897 52° Northeast 491 565 32,100 500 Climbing FlightAware ADS-B
Fri 11:44:22 PM 42.4931 -71.3186 52° Northeast 495 570 32,300 600 Climbing FlightAware ADS-B
Fri 11:44:52 PM 42.5367 -71.2435 52° Northeast 497 572 32,700 689 Climbing FlightAware ADS-B
Fri 11:45:23 PM 42.5803 -71.1684 52° Northeast 501 577 33,000 360 Climbing FlightAware ADS-B
Fri 11:45:42 PM 42.6075 -71.1214 52° Northeast 499 574 33,000  Level FlightAware ADS-B
Fri 11:45:49 PM 42.6179 -71.1035 52° Northeast 501 577 33,000  Level FlightAware ADS-B
Fri 11:45:55 PM 42.6262 -71.0890 52° Northeast 500 575 33,000  Level FlightAware ADS-B
Fri 11:46:23 PM 42.6661 -71.0196 52° Northeast 506 582 33,000  Level FlightAware ADS-B
Fri 11:46:38 PM 42.6877 -70.9821 52° Northeast 501 577 33,000  Level FlightAware ADS-B
Fri 11:46:51 PM 42.7067 -70.9490 52° Northeast 503 579 33,000  Level FlightAware ADS-B
Fri 11:47:02 PM 42.7224 -70.9218 52° Northeast 507 583 33,000  Level FlightAware ADS-B
Fri 11:47:12 PM 42.7367 -70.8969 52° Northeast 509 586 33,000  Level FlightAware ADS-B
Fri 11:47:19 PM 42.7481 -70.8771 52° Northeast 509 586 33,000  Level FlightAware ADS-B
Fri 11:47:52 PM 42.7941 -70.7966 52° Northeast 513 590 33,000  Level FlightAware ADS-B
Fri 11:47:59 PM 42.8064 -70.7752 52° Northeast 508 585 33,000  Level FlightAware ADS-B
Fri 11:48:11 PM 42.8227 -70.7467 52° Northeast 508 585 33,000  Level FlightAware ADS-B
Fri 11:48:19 PM 42.8351 -70.7247 52° Northeast 508 585 33,000  Level FlightAware ADS-B
Fri 11:48:29 PM 42.8488 -70.7009 52° Northeast 508 585 33,000  Level FlightAware ADS-B
Fri 11:48:53 PM 42.8831 -70.6407 52° Northeast 513 590 33,000  Level FlightAware ADS-B
Fri 11:49:08 PM 42.9057 -70.6008 52° Northeast 508 585 33,000  Level FlightAware ADS-B
Fri 11:49:32 PM 42.9406 -70.5394 52° Northeast 510 587 33,000  Level FlightAware ADS-B
Fri 11:49:40 PM 42.9519 -70.5194 52° Northeast 510 587 33,000  Level FlightAware ADS-B
Fri 11:49:52 PM 42.9708 -70.4860 52° Northeast 515 593 33,000  Level FlightAware ADS-B
Fri 11:50:22 PM 43.0134 -70.4107 52° Northeast 518 596 33,000  Level FlightAware ADS-B
Fri 11:50:31 PM 43.0262 -70.3880 52° Northeast 513 590 33,000  Level FlightAware ADS-B
Fri 11:50:42 PM 43.0434 -70.3574 52° Northeast 514 592 33,000  Level FlightAware ADS-B
Fri 11:51:13 PM 43.0882 -70.2778 52° Northeast 515 593 33,000  Level FlightAware ADS-B
Fri 11:51:53 PM 43.1455 -70.1758 52° Northeast 514 592 33,000  Level FlightAware ADS-B
Fri 11:52:23 PM 43.1882 -70.0994 52° Northeast 514 592 33,000  Level FlightAware ADS-B
Fri 11:53:02 PM 43.2455 -69.9964 53° Northeast 511 588 33,000  Level FlightAware ADS-B
Fri 11:53:32 PM 43.2816 -69.9316 53° Northeast 510 587 33,000  Level FlightAware ADS-B
Fri 11:54:02 PM 43.3308 -69.8430 53° Northeast 513 590 33,000  Level FlightAware ADS-B
Fri 11:54:32 PM 43.3717 -69.7691 53° Northeast 513 590 33,000  Level FlightAware ADS-B
Fri 11:55:03 PM 43.4176 -69.6858 53° Northeast 516 594 33,000  Level FlightAware ADS-B
Fri 11:55:12 PM 43.4312 -69.6612 53° Northeast 513 590 33,000  Level FlightAware ADS-B
Fri 11:55:22 PM 43.4459 -69.6344 53° Northeast 514 592 33,000  Level FlightAware ADS-B
Fri 11:55:31 PM 43.4592 -69.6103 53° Northeast 514 592 33,000  Level FlightAware ADS-B
Fri 11:55:42 PM 43.4749 -69.5818 53° Northeast 516 594 33,000  Level FlightAware ADS-B
Fri 11:55:53 PM 43.4902 -69.5538 53° Northeast 521 600 33,000  Level FlightAware ADS-B
Fri 11:56:33 PM 43.5474 -69.4491 53° Northeast 516 594 33,000  Level FlightAware ADS-B
Fri 11:57:12 PM 43.6032 -69.3468 53° Northeast 511 588 33,000  Level FlightAware ADS-B
Fri 11:57:42 PM 43.6464 -69.2675 53° Northeast 514 592 33,000  Level FlightAware ADS-B
Fri 11:58:13 PM 43.6892 -69.1886 53° Northeast 512 589 33,000  Level FlightAware ADS-B
Fri 11:58:52 PM 43.7449 -69.0855 53° Northeast 514 592 33,000  Level FlightAware ADS-B
Fri 11:59:33 PM 43.8037 -68.9765 53° Northeast 513 590 33,000  Level FlightAware ADS-B
Sat 12:00:11 AM 43.8571 -68.8768 53° Northeast 509 586 33,000  Level FlightAware ADS-B
Sat 12:00:28 AM 43.8801 -68.8339 53° Northeast 508 585 33,000  Level FlightAware ADS-B
Sat 12:01:03 AM 43.9293 -68.7420 53° Northeast 510 587 33,000  Level FlightAware ADS-B
Sat 12:01:33 AM 43.9673 -68.6706 53° Northeast 512 589 33,000  Level FlightAware ADS-B
Sat 12:02:06 AM 44.0130 -68.5840 54° Northeast 512 589 33,000  Level FlightAware ADS-B
Sat 12:02:30 AM 44.0517 -68.5115 53° Northeast 516 594 33,000  Level FlightAware ADS-B
Sat 12:03:06 AM 44.1020 -68.4170 53° Northeast 515 593 33,000  Level FlightAware ADS-B
Sat 12:03:45 AM 44.0002 -68.6087 234° Southwest 515 593 33,000  Level FlightAware ADS-B
Sat 12:04:50 AM 44.2490 -68.1370 54° Northeast 513 590 33,000  Level FlightAware ADS-B
Sat 12:05:39 AM 44.1915 -68.2462 234° Southwest 516 594 33,000  Level FlightAware ADS-B
Sat 12:06:36 AM 44.3960 -67.8530 54° Northeast 515 593 33,000  Level FlightAware ADS-B
Sat 12:07:24 AM 44.4630 -67.7240 54° Northeast 519 597 33,000  Level FlightAware ADS-B
Sat 12:08:16 AM 44.5370 -67.5800 54° Northeast 523 602 33,000  Level FlightAware ADS-B
Sat 12:09:12 AM 44.6123 -67.4321 54° Northeast 523 602 33,000  Level FlightAware ADS-B
Sat 12:09:51 AM 44.6696 -67.3196 54° Northeast 523 602 33,000  Level FlightAware ADS-B
Sat 12:10:21 AM 44.7117 -67.2366 54° Northeast 523 602 33,000  Level FlightAware ADS-B
Sat 12:11:19 AM 44.7920 -67.0780 54° Northeast 520 598 33,000  Level FlightAware ADS-B
Sat 12:11:53 AM 44.8290 -67.0050 54° Northeast 522 601 33,000  Level FlightAware ADS-B
Sat 12:12:38 AM 44.9030 -66.8560 55° Northeast 521 600 33,000  Level FlightAware ADS-B
Sat 12:13:26 AM 44.9660 -66.7300 55° Northeast 516 594 33,000  Level FlightAware ADS-B
Sat 12:14:14 AM 45.0320 -66.5960 55° Northeast 517 595 33,000  Level FlightAware ADS-B
Sat 12:14:54 AM 45.0880 -66.4820 55° Northeast 517 595 33,000  Level FlightAware ADS-B
Sat 12:16:04 AM 45.1840 -66.2880 55° Northeast 514 592 33,000  Level FlightAware ADS-B
Sat 12:16:49 AM 45.2450 -66.1640 55° Northeast 514 592 33,000  Level FlightAware ADS-B
Sat 12:17:31 AM 45.3010 -66.0490 55° Northeast 516 594 33,000  Level FlightAware ADS-B
Sat 12:18:14 AM 45.3610 -65.9240 56° Northeast 520 598 33,000  Level FlightAware ADS-B
Sat 12:18:49 AM 45.4080 -65.8260 56° Northeast 520 598 33,000  Level FlightAware ADS-B
Sat 12:19:39 AM 45.4770 -65.6830 55° Northeast 519 597 33,000  Level FlightAware ADS-B
Sat 12:20:09 AM 45.5170 -65.5990 56° Northeast 522 601 33,000  Level FlightAware ADS-B
Sat 12:20:57 AM 45.5840 -65.4590 56° Northeast 520 598 33,000  Level FlightAware ADS-B
Sat 12:21:25 AM 45.6230 -65.3780 55° Northeast 521 600 33,000  Level FlightAware ADS-B
Sat 12:22:23 AM 45.7000 -65.2150 56° Northeast 520 598 33,000  Level FlightAware ADS-B
Sat 12:22:54 AM 45.7410 -65.1270 56° Northeast 518 596 33,000  Level FlightAware ADS-B
Sat 12:23:36 AM 45.7980 -65.0060 56° Northeast 515 593 33,000  Level FlightAware ADS-B
Sat 12:24:16 AM 45.8500 -64.8960 56° Northeast 514 592 33,000  Level FlightAware ADS-B
Sat 12:24:48 AM 45.8930 -64.8020 57° Northeast 524 603 33,000  Level FlightAware ADS-B
Sat 12:25:45 AM 45.9690 -64.6390 56° Northeast 522 601 33,000  Level FlightAware ADS-B
Sat 12:26:34 AM 46.0340 -64.4970 57° Northeast 520 598 33,000  Level FlightAware ADS-B
Sat 12:27:07 AM 46.0770 -64.4030 57° Northeast 521 600 33,000  Level FlightAware ADS-B
Sat 12:27:45 AM 46.1290 -64.2890 57° Northeast 525 604 33,000  Level FlightAware ADS-B
Sat 12:28:14 AM 46.1650 -64.2110 56° Northeast 522 601 33,000  Level FlightAware ADS-B
Sat 12:29:01 AM 46.2300 -64.0690 56° Northeast 526 605 33,000  Level FlightAware ADS-B
Sat 12:29:51 AM 46.2960 -63.9220 57° Northeast 525 604 33,000  Level FlightAware ADS-B
Sat 12:30:21 AM 46.3360 -63.8320 57° Northeast 525 604 33,000  Level FlightAware ADS-B
Sat 12:30:55 AM 46.3790 -63.7360 57° Northeast 524 603 33,000  Level FlightAware ADS-B
Sat 12:31:50 AM 46.4530 -63.5710 57° Northeast 525 604 33,000  Level FlightAware ADS-B
Sat 12:32:43 AM 46.5220 -63.4150 57° Northeast 523 602 33,000  Level FlightAware ADS-B
Sat 12:33:31 AM 46.5840 -63.2750 57° Northeast 525 604 33,000  Level FlightAware ADS-B
Sat 12:34:23 AM 46.6520 -63.1190 58° Northeast 527 606 33,000  Level FlightAware ADS-B
Sat 12:35:12 AM 46.7170 -62.9710 57° Northeast 528 608 33,000  Level FlightAware ADS-B
Sat 12:36:10 AM 46.7920 -62.7970 58° Northeast 528 608 33,000  Level FlightAware ADS-B
Sat 12:36:58 AM 46.8550 -62.6520 58° Northeast 530 610 33,000  Level FlightAware ADS-B
Sat 12:37:29 AM 46.8950 -62.5590 58° Northeast 528 608 33,000  Level FlightAware ADS-B
Sat 12:38:35 AM 46.9790 -62.3600 58° Northeast 527 606 33,000  Level FlightAware ADS-B
Sat 12:39:24 AM 47.0420 -62.2120 58° Northeast 529 609 33,000  Level FlightAware ADS-B
Sat 12:40:21 AM 47.1170 -62.0350 58° Northeast 535 616 33,000  Level FlightAware ADS-B
Sat 12:41:18 AM 47.1910 -61.8590 58° Northeast 536 617 33,000  Level FlightAware ADS-B
Sat 12:41:53 AM 47.2350 -61.7520 59° Northeast 536 617 33,000  Level FlightAware ADS-B
Sat 12:42:54 AM 47.3150 -61.5610 58° Northeast 539 620 33,000  Level FlightAware ADS-B
Sat 12:43:21 AM 47.3500 -61.4750 59° Northeast 539 620 33,000  Level FlightAware ADS-B
Sat 12:44:10 AM 47.4120 -61.3240 59° Northeast 539 620 33,000  Level FlightAware ADS-B
Sat 12:45:08 AM 47.4870 -61.1400 59° Northeast 538 619 33,000  Level FlightAware ADS-B
Sat 12:45:58 AM 47.5510 -60.9820 59° Northeast 540 621 33,000  Level FlightAware ADS-B
Sat 12:46:31 AM 47.5930 -60.8800 59° Northeast 539 620 33,000  Level FlightAware ADS-B
Sat 12:47:03 AM 47.6340 -60.7770 59° Northeast 539 620 33,000  Level FlightAware ADS-B
Sat 12:47:31 AM 47.6700 -60.6860 60° Northeast 540 621 33,000  Level FlightAware ADS-B
Sat 12:48:21 AM 47.7330 -60.5300 59° Northeast 539 620 33,000  Level FlightAware ADS-B
Sat 12:49:21 AM 47.8100 -60.3350 59° Northeast 539 620 33,000  Level FlightAware ADS-B
Sat 12:50:24 AM 47.8830 -60.1520 59° Northeast 538 619 33,000  Level FlightAware ADS-B
Sat 12:51:12 AM 47.9350 -60.0220 59° Northeast 538 619 33,000  Level FlightAware ADS-B
Sat 12:51:49 AM 47.9950 -59.8620 61° Northeast 545 627 33,000  Level FlightAware ADS-B
Sat 12:52:28 AM 48.0380 -59.7550 59° Northeast 545 627 33,000  Level FlightAware ADS-B
Sat 12:53:04 AM 48.0780 -59.6560 59° Northeast 545 627 33,000  Level FlightAware ADS-B
Sat 12:53:40 AM 48.1180 -59.5570 59° Northeast 545 627 33,000  Level FlightAware ADS-B
Sat 12:54:46 AM 48.2170 -59.2830 61° Northeast 550 633 33,000  Level FlightAware ADS-B
Sat 12:55:20 AM 48.2600 -59.1700 60° Northeast 549 632 33,000  Level FlightAware ADS-B
Sat 12:55:51 AM 48.2960 -59.0750 60° Northeast 549 632 33,000  Level FlightAware ADS-B
Sat 12:56:26 AM 48.3400 -58.9590 60° Northeast 545 627 33,000  Level FlightAware ADS-B
Sat 12:57:36 AM 48.4290 -58.7200 61° Northeast 552 635 33,000  Level FlightAware ADS-B
Sat 12:58:21 AM 48.4820 -58.5770 61° Northeast 554 638 33,000  Level FlightAware ADS-B
Sat 12:59:21 AM 48.5590 -58.3680 61° Northeast 556 640 33,000  Level FlightAware ADS-B
Sat 01:00:00 AM 48.6080 -58.2340 61° Northeast 554 638 33,000  Level FlightAware ADS-B
Sat 01:00:46 AM 48.6640 -58.0790 61° Northeast 554 638 33,000  Level FlightAware ADS-B
Sat 01:01:46 AM 48.7360 -57.8790 61° Northeast 556 640 33,000  Level FlightAware ADS-B
Sat 01:02:16 AM 48.7720 -57.7760 62° Northeast 555 639 33,000  Level FlightAware ADS-B
Sat 01:02:46 AM 48.8060 -57.6730 63° Northeast 555 639 33,000  Level FlightAware ADS-B
Sat 01:03:26 AM 48.8530 -57.5300 63° Northeast 557 641 33,000  Level FlightAware ADS-B
Sat 01:04:00 AM 48.8910 -57.4140 63° Northeast 559 643 33,000  Level FlightAware ADS-B
Sat 01:04:31 AM 48.9270 -57.3050 63° Northeast 559 643 33,000  Level FlightAware ADS-B
Sat 01:05:26 AM 48.9900 -57.1130 63° Northeast 559 643 33,000  Level FlightAware ADS-B
Sat 01:06:06 AM 49.0360 -56.9730 63° Northeast 557 641 33,000  Level FlightAware ADS-B
Sat 01:06:35 AM 49.0710 -56.8640 64° Northeast 557 641 33,000  Level FlightAware ADS-B
Sat 01:07:05 AM 49.1050 -56.7570 64° Northeast 557 641 33,000  Level FlightAware ADS-B
Sat 01:07:41 AM 49.1450 -56.6350 63° Northeast 558 642 33,000  Level FlightAware ADS-B
Sat 01:08:10 AM 49.1790 -56.5270 64° Northeast 560 644 33,000  Level FlightAware ADS-B
Sat 01:08:45 AM 49.2190 -56.4030 64° Northeast 561 646 33,000  Level FlightAware ADS-B
Sat 01:09:21 AM 49.2580 -56.2770 65° Northeast 560 644 33,000  Level FlightAware ADS-B
Sat 01:10:20 AM 49.3240 -56.0670 64° Northeast 562 647 33,000  Level FlightAware ADS-B
Sat 01:11:16 AM 49.3880 -55.8630 64° Northeast 567 652 33,000  Level FlightAware ADS-B
Sat 01:11:36 AM 49.4100 -55.7910 65° Northeast 567 652 33,000  Level FlightAware ADS-B
Sat 01:12:41 AM 49.4840 -55.5510 65° Northeast 567 652 33,000  Level FlightAware ADS-B
Sat 01:13:52 AM 49.5630 -55.2910 65° Northeast 573 659 33,000  Level FlightAware ADS-B
Sat 01:14:46 AM 49.6240 -55.0910 65° Northeast 576 663 33,000  Level FlightAware ADS-B
Sat 01:15:45 AM 49.6890 -54.8740 65° Northeast 574 661 33,000  Level FlightAware ADS-B
Sat 01:16:18 AM 49.7250 -54.7500 66° East 576 663 33,000  Level FlightAware ADS-B
Sat 01:17:03 AM 49.7760 -54.5800 65° Northeast 583 671 33,000  Level FlightAware ADS-B
Sat 01:17:31 AM 49.8070 -54.4750 65° Northeast 581 669 33,000 508 Level FlightAware ADS-B
Sat 01:18:02 AM 49.8400 -54.3600 66° East 577 664 33,500 750 Climbing FlightAware ADS-B
Sat 01:19:07 AM 49.9120 -54.1140 65° Northeast 580 667 34,200 643 Climbing FlightAware ADS-B
Sat 01:19:54 AM 49.9640 -53.9330 66° East 582 670 34,700 485 Climbing FlightAware ADS-B
Sat 01:20:46 AM 50.0200 -53.7340 66° East 580 667 35,000 212 Climbing FlightAware ADS-B
Sat 01:21:19 AM 50.0550 -53.6100 66° East 586 674 35,000  Level FlightAware ADS-B
Sat 01:21:51 AM 50.0900 -53.4880 66° East 588 677 35,000  Level FlightAware ADS-B
Sat 01:22:25 AM 50.1260 -53.3580 67° East 593 682 35,000  Level FlightAware ADS-B
Sat 01:23:31 AM 50.1980 -53.1010 66° East 597 687 35,000  Level FlightAware ADS-B
Sat 01:24:19 AM 50.2520 -52.9030 67° East 599 689 35,000  Level FlightAware ADS-B
Sat 01:25:13 AM 50.3060 -52.7110 66° East 593 682 35,000  Level FlightAware ADS-B
Sat 01:25:45 AM 50.3430 -52.5690 68° East 594 684 35,000  Level FlightAware ADS-B
Sat 01:26:21 AM 50.3810 -52.4270 67° East 596 686 35,000  Level FlightAware ADS-B
Sat 01:27:18 AM 50.4350 -52.2300 67° East 598 688 35,000  Level FlightAware ADS-B
Sat 01:27:42 AM 50.4570 -52.1480 67° East 598 688 35,000  Level FlightAware ADS-B
Sat 01:28:42 AM 50.5120 -51.9440 67° East 598 688 35,000  Level FlightAware ADS-B
Sat 01:29:06 AM 50.5340 -51.8620 67° East 598 688 35,000  Level FlightAware ADS-B
Sat 01:29:42 AM 50.5670 -51.7390 67° East 598 688 35,000  Level FlightAware ADS-B
Sat 01:30:18 AM 50.6000 -51.6170 67° East 598 688 35,000  Level FlightAware ADS-B
Sat 01:31:07 AM 50.6450 -51.4490 67° East 598 688 35,000  Level FlightAware ADS-B
Sat 01:31:31 AM 50.6670 -51.3670 67° East 598 688 35,000  Level FlightAware ADS-B
Sat 01:32:31 AM 50.7220 -51.1620 67° East 598 688 35,000  Level FlightAware ADS-B
Sat 01:33:07 AM 50.7550 -51.0390 67° East 598 688 35,000  Level FlightAware ADS-B
Sat 01:33:43 AM 50.7880 -50.9160 67° East 598 688 35,000  Level FlightAware ADS-B
Sat 01:34:19 AM 50.8210 -50.7930 67° East 598 688 35,000  Level FlightAware ADS-B
Sat 01:34:55 AM 50.8540 -50.6690 67° East 598 688 35,000  Level FlightAware ADS-B
Sat 01:35:31 AM 50.8870 -50.5460 67° East 598 688 35,000  Level FlightAware ADS-B
Sat 01:35:55 AM 50.9090 -50.4630 67° East 598 688 35,000  Level FlightAware ADS-B
Sat 01:36:43 AM 50.9530 -50.2990 67° East 598 688 35,000  Level FlightAware ADS-B
Sat 01:37:28 AM 51.0500 -49.6833 67° East 600 690 35,000  Level Gander Center
Sat 01:38:28 AM 51.1167 -49.4167 68° East 600 690 35,000  Level Gander Center
Sat 01:42:00 AM 51.3348 -49.1966 32° Northeast  Level Estimated
Sat 01:46:00 AM 51.0000 -50.0000 68° East 596 686 35,000  Level ETMS Enhanced Traffic Management System
Sat 01:49:00 AM 52.1079 -48.3958 32° Northeast  Level Estimated
Sat 01:50:00 AM 52.2179 -48.2792 33° Northeast  Level Estimated
Sat 01:51:00 AM 52.3278 -48.1619 33° Northeast  Level Estimated
Sat 01:52:00 AM 51.9225 -46.0066 71° East 596 686 35,000  Level FlightAware Transoceanic
Sat 01:53:00 AM 51.9756 -45.7518 71° East 596 686 35,000  Level FlightAware Transoceanic
Sat 01:54:00 AM 52.0281 -45.4963 72° East 596 686 35,000  Level FlightAware Transoceanic
Sat 01:55:00 AM 52.0801 -45.2402 72° East 596 686 35,000  Level FlightAware Transoceanic
Sat 01:56:00 AM 52.1315 -44.9836 72° East 596 686 35,000  Level FlightAware Transoceanic
Sat 01:57:00 AM 52.1824 -44.7263 72° East 596 686 35,000  Level FlightAware Transoceanic
Sat 01:58:00 AM 52.2327 -44.4685 72° East 596 686 35,000  Level FlightAware Transoceanic
Sat 01:59:00 AM 52.2824 -44.2101 73° East 596 686 35,000  Level FlightAware Transoceanic
Sat 02:00:00 AM 52.3316 -43.9511 73° East 596 686 35,000  Level FlightAware Transoceanic
Sat 02:01:00 AM 52.3802 -43.6915 73° East 596 686 35,000  Level FlightAware Transoceanic
Sat 02:02:00 AM 52.4283 -43.4314 73° East 596 686 35,000  Level FlightAware Transoceanic
Sat 02:03:00 AM 52.4757 -43.1707 73° East 596 686 35,000  Level FlightAware Transoceanic
Sat 02:04:00 AM 52.5227 -42.9094 74° East 596 686 35,000  Level FlightAware Transoceanic
Sat 02:05:00 AM 52.5690 -42.6476 74° East 596 686 35,000  Level FlightAware Transoceanic
Sat 02:06:00 AM 52.6147 -42.3852 74° East 596 686 35,000  Level FlightAware Transoceanic
Sat 02:07:00 AM 52.6599 -42.1223 74° East 596 686 35,000  Level FlightAware Transoceanic
Sat 02:08:00 AM 52.7044 -41.8589 75° East 596 686 35,000  Level FlightAware Transoceanic
Sat 02:09:00 AM 52.7485 -41.5949 75° East 596 686 35,000  Level FlightAware Transoceanic
Sat 02:10:00 AM 52.7919 -41.3304 75° East 596 686 35,000  Level FlightAware Transoceanic
Sat 02:11:00 AM 52.8347 -41.0653 75° East 596 686 35,000  Level FlightAware Transoceanic
Sat 02:12:00 AM 52.8769 -40.7998 75° East 596 686 35,000  Level FlightAware Transoceanic
Sat 02:13:00 AM 52.9185 -40.5337 76° East 596 686 35,000  Level FlightAware Transoceanic
Sat 02:14:00 AM 52.9596 -40.2671 76° East 596 686 35,000  Level FlightAware Transoceanic
Sat 02:15:00 AM 53.0579 -40.1226 41° Northeast  Level Estimated
Sat 02:16:00 AM 53.1560 -39.9775 42° Northeast  Level Estimated
Sat 02:17:00 AM 53.2539 -39.8317 42° Northeast  Level Estimated
Sat 02:18:00 AM 53.3517 -39.6853 42° Northeast  Level Estimated
Sat 02:19:00 AM 53.4493 -39.5382 42° Northeast  Level Estimated
Sat 02:20:00 AM 53.5467 -39.3904 42° Northeast  Level Estimated
Sat 02:21:00 AM 53.6440 -39.2419 42° Northeast  Level Estimated
Sat 02:22:00 AM 53.7410 -39.0928 42° Northeast  Level Estimated
Sat 02:23:00 AM 53.8379 -38.9429 42° Northeast  Level Estimated
Sat 02:24:00 AM 53.9346 -38.7924 42° Northeast  Level Estimated
Sat 02:25:00 AM 54.0310 -38.6411 43° Northeast  Level Estimated
Sat 02:26:00 AM 54.1273 -38.4892 43° Northeast  Level Estimated
Sat 02:27:00 AM 54.2234 -38.3365 43° Northeast  Level Estimated
Sat 02:28:00 AM 54.3193 -38.1832 43° Northeast  Level Estimated
Sat 02:29:00 AM 54.4150 -38.0291 43° Northeast  Level Estimated
Sat 02:30:00 AM 54.5106 -37.8743 43° Northeast  Level Estimated
Sat 02:31:00 AM 54.6059 -37.7188 43° Northeast  Level Estimated
Sat 02:32:00 AM 54.7010 -37.5625 43° Northeast  Level Estimated
Sat 02:33:00 AM 54.7959 -37.4055 44° Northeast  Level Estimated
Sat 02:33:00 AM 53.0000 -40.0000 76° East 586 674 35,000  Level ETMS Enhanced Traffic Management System
Sat 02:34:00 AM 54.8906 -37.2478 44° Northeast  Level Estimated
Sat 02:35:00 AM 54.9851 -37.0893 44° Northeast  Level Estimated
Sat 02:36:00 AM 55.0794 -36.9301 44° Northeast  Level Estimated
Sat 02:37:00 AM 55.1735 -36.7701 44° Northeast  Level Estimated
Sat 02:38:00 AM 55.2674 -36.6094 44° Northeast  Level Estimated
Sat 02:39:00 AM 53.7676 -33.2928 82° East 586 674 35,000  Level FlightAware Transoceanic
Sat 02:40:00 AM 53.7904 -33.0198 82° East 586 674 35,000  Level FlightAware Transoceanic
Sat 02:41:00 AM 53.8126 -32.7466 82° East 586 674 35,000  Level FlightAware Transoceanic
Sat 02:42:00 AM 53.8341 -32.4731 83° East 586 674 35,000  Level FlightAware Transoceanic
Sat 02:43:00 AM 53.8551 -32.1993 83° East 586 674 35,000  Level FlightAware Transoceanic
Sat 02:44:00 AM 53.8754 -31.9253 83° East 586 674 35,000  Level FlightAware Transoceanic
Sat 02:45:00 AM 53.8951 -31.6509 83° East 586 674 35,000  Level FlightAware Transoceanic
Sat 02:46:00 AM 53.9141 -31.3764 83° East 586 674 35,000  Level FlightAware Transoceanic
Sat 02:47:00 AM 53.9326 -31.1016 84° East 586 674 35,000  Level FlightAware Transoceanic
Sat 02:48:00 AM 53.9504 -30.8265 84° East 586 674 35,000  Level FlightAware Transoceanic
Sat 02:49:00 AM 53.9675 -30.5512 84° East 586 674 35,000  Level FlightAware Transoceanic
Sat 02:50:00 AM 53.9841 -30.2757 84° East 586 674 35,000  Level FlightAware Transoceanic
Sat 02:51:00 AM 54.0664 -30.1018 51° Northeast  Level Estimated
Sat 02:52:00 AM 54.1485 -29.9272 51° Northeast  Level Estimated
Sat 02:53:00 AM 54.2303 -29.7518 51° Northeast  Level Estimated
Sat 02:53:00 AM 54.0000 -30.0000 95° East 602 693 35,000  Level ETMS Enhanced Traffic Management System
Sat 02:54:00 AM 54.3119 -29.5758 51° Northeast  Level Estimated
Sat 02:55:00 AM 54.3932 -29.3991 52° Northeast  Level Estimated
Sat 02:56:00 AM 54.4742 -29.2217 52° Northeast  Level Estimated
Sat 02:57:00 AM 54.5550 -29.0435 52° Northeast  Level Estimated
Sat 02:58:00 AM 54.6356 -28.8647 52° Northeast  Level Estimated
Sat 02:59:00 AM 53.8288 -27.4585 98° East 602 693 35,000  Level FlightAware Transoceanic
Sat 03:00:00 AM 53.8065 -27.1775 98° East 602 693 35,000  Level FlightAware Transoceanic
Sat 03:01:00 AM 53.7835 -26.8967 98° East 602 693 35,000  Level FlightAware Transoceanic
Sat 03:02:00 AM 53.7599 -26.6163 98° East 602 693 35,000  Level FlightAware Transoceanic
Sat 03:03:00 AM 53.7356 -26.3363 98° East 602 693 35,000  Level FlightAware Transoceanic
Sat 03:04:00 AM 53.7106 -26.0565 99° East 602 693 35,000  Level FlightAware Transoceanic
Sat 03:05:00 AM 53.6850 -25.7771 99° East 602 693 35,000  Level FlightAware Transoceanic
Sat 03:06:00 AM 53.6588 -25.4980 99° East 602 693 35,000  Level FlightAware Transoceanic
Sat 03:07:00 AM 53.6319 -25.2192 99° East 602 693 35,000  Level FlightAware Transoceanic
Sat 03:08:00 AM 53.6044 -24.9409 100° East 602 693 35,000  Level FlightAware Transoceanic
Sat 03:09:00 AM 53.5762 -24.6629 100° East 602 693 35,000  Level FlightAware Transoceanic
Sat 03:10:00 AM 53.5474 -24.3853 100° East 602 693 35,000  Level FlightAware Transoceanic
Sat 03:11:00 AM 53.5179 -24.1080 100° East 602 693 35,000  Level FlightAware Transoceanic
Sat 03:12:00 AM 53.4878 -23.8311 100° East 602 693 35,000  Level FlightAware Transoceanic
Sat 03:13:00 AM 53.4571 -23.5547 101° East 602 693 35,000  Level FlightAware Transoceanic
Sat 03:14:00 AM 53.4257 -23.2786 101° East 602 693 35,000  Level FlightAware Transoceanic
Sat 03:15:00 AM 53.3937 -23.0030 101° East 602 693 35,000  Level FlightAware Transoceanic
Sat 03:16:00 AM 53.3610 -22.7278 101° East 602 693 35,000  Level FlightAware Transoceanic
Sat 03:17:00 AM 53.3277 -22.4529 102° East 602 693 35,000  Level FlightAware Transoceanic
Sat 03:18:00 AM 53.2938 -22.1786 102° East 602 693 35,000  Level FlightAware Transoceanic
Sat 03:19:00 AM 53.2593 -21.9046 102° East 602 693 35,000  Level FlightAware Transoceanic
Sat 03:20:00 AM 53.2241 -21.6312 102° East 602 693 35,000  Level FlightAware Transoceanic
Sat 03:21:00 AM 53.1883 -21.3581 102° East 602 693 35,000  Level FlightAware Transoceanic
Sat 03:22:00 AM 53.1519 -21.0856 103° East 602 693 35,000  Level FlightAware Transoceanic
Sat 03:23:00 AM 53.1148 -20.8135 103° East 602 693 35,000  Level FlightAware Transoceanic
Sat 03:24:00 AM 53.0772 -20.5418 103° East 602 693 35,000  Level FlightAware Transoceanic
Sat 03:25:00 AM 53.0389 -20.2707 103° East 602 693 35,000  Level FlightAware Transoceanic
Sat 03:26:00 AM 53.1030 -20.0801 61° Northeast  Level Estimated
Sat 03:27:00 AM 53.1668 -19.8889 61° Northeast  Level Estimated
Sat 03:28:00 AM 53.2302 -19.6972 61° Northeast  Level Estimated
Sat 03:29:00 AM 53.2934 -19.5049 61° Northeast  Level Estimated
Sat 03:30:00 AM 53.3563 -19.3121 61° Northeast  Level Estimated
Sat 03:31:00 AM 53.4188 -19.1187 61° Northeast  Level Estimated
Sat 03:32:00 AM 53.4810 -18.9247 62° Northeast  Level Estimated
Sat 03:33:00 AM 53.5429 -18.7301 62° Northeast  Level Estimated
Sat 03:34:00 AM 53.6045 -18.5350 62° Northeast  Level Estimated
Sat 03:35:00 AM 53.6658 -18.3393 62° Northeast  Level Estimated
Sat 03:36:00 AM 53.7268 -18.1431 62° Northeast  Level Estimated
Sat 03:37:00 AM 53.7874 -17.9462 62° Northeast  Level Estimated
Sat 03:38:00 AM 53.8478 -17.7488 63° Northeast  Level Estimated
Sat 03:39:00 AM 53.9077 -17.5509 63° Northeast  Level Estimated
Sat 03:40:00 AM 53.9674 -17.3523 63° Northeast  Level Estimated
Sat 03:41:00 AM 54.0267 -17.1532 63° Northeast  Level Estimated
Sat 03:42:00 AM 54.0858 -16.9536 63° Northeast  Level Estimated
Sat 03:43:00 AM 54.1444 -16.7533 63° Northeast  Level Estimated
Sat 03:44:00 AM 54.2028 -16.5525 64° Northeast  Level Estimated
Sat 03:45:00 AM 54.2608 -16.3512 64° Northeast  Level Estimated
Sat 03:46:00 AM 54.3185 -16.1492 64° Northeast  Level Estimated
Sat 03:47:00 AM 54.3758 -15.9467 64° Northeast  Level Estimated
Sat 03:48:00 AM 54.4328 -15.7436 64° Northeast  Level Estimated
Sat 03:49:00 AM 54.4894 -15.5400 64° Northeast  Level Estimated
Sat 03:50:00 AM 54.5457 -15.3358 65° Northeast  Level Estimated
Sat 03:51:00 AM 54.6017 -15.1311 65° Northeast  Level Estimated
Sat 03:52:00 AM 54.6573 -14.9257 65° Northeast  Level Estimated
Sat 03:53:00 AM 54.7126 -14.7199 65° Northeast  Level Estimated
Sat 03:53:04 AM 52.8580 -12.8640 65° Northeast 582 670 35,000  Level FlightAware ADS-B
Sat 03:53:38 AM 52.8490 -12.7380 97° East 581 669 35,000  Level FlightAware ADS-B
Sat 03:54:23 AM 52.8320 -12.5270 98° East 577 664 35,000  Level FlightAware ADS-B
Sat 03:55:28 AM 52.8100 -12.2460 97° East 571 657 35,000  Level FlightAware ADS-B
Sat 03:55:53 AM 52.8000 -12.1320 98° East 572 658 35,000  Level FlightAware ADS-B
Sat 03:56:39 AM 52.7840 -11.9310 97° East 574 661 35,000  Level FlightAware ADS-B
Sat 03:57:39 AM 52.7610 -11.6650 98° East 577 664 35,000  Level FlightAware ADS-B
Sat 03:58:14 AM 52.7480 -11.5150 98° East 578 665 35,000  Level FlightAware ADS-B
Sat 03:58:44 AM 52.7380 -11.3930 98° East 578 665 35,000  Level FlightAware ADS-B
Sat 03:59:33 AM 52.7190 -11.1860 99° East 575 662 35,000  Level FlightAware ADS-B
Sat 03:59:58 AM 52.7080 -11.0680 99° East 574 661 35,000  Level FlightAware ADS-B
Sat 04:00:44 AM 52.6910 -10.8820 99° East 573 659 35,000  Level FlightAware ADS-B
Sat 04:01:09 AM 52.6800 -10.7600 98° East 570 656 35,000  Level FlightAware ADS-B
Sat 04:01:59 AM 52.6590 -10.5440 99° East 567 652 35,000  Level FlightAware ADS-B
Sat 04:02:39 AM 52.6430 -10.3780 99° East 562 647 35,000  Level FlightAware ADS-B
Sat 04:03:23 AM 52.6250 -10.1880 99° East 559 643 35,000  Level FlightAware ADS-B
Sat 04:03:58 AM 52.6100 -10.0380 99° East 555 639 35,000  Level FlightAware ADS-B
Sat 04:04:44 AM 52.5910 -9.8520 99° East 554 638 35,000  Level FlightAware ADS-B
Sat 04:05:19 AM 52.5760 -9.7050 99° East 554 638 35,000  Level FlightAware ADS-B
Sat 04:05:55 AM 52.5600 -9.5550 100° East 555 639 35,000  Level FlightAware ADS-B
Sat 04:06:28 AM 52.5460 -9.4190 100° East 552 635 35,000  Level FlightAware ADS-B
Sat 04:07:38 AM 52.5153 -9.1344 100° East 549 632 35,000  Level FlightAware ADS-B
Sat 04:08:14 AM 52.4972 -8.9794 100° East 1 1 35,000  Level FlightAware UK
Sat 04:08:18 AM 52.4973 -8.9706 100° East 547 629 35,000  Level FlightAware ADS-B
Sat 04:08:53 AM 52.4895 -8.8989 100° East 548 631 35,000  Level FlightAware ADS-B
Sat 04:09:23 AM 52.4675 -8.7014 100° East 553 636 35,000  Level FlightAware ADS-B
Sat 04:10:04 AM 52.4509 -8.5554 100° East 550 633 35,000  Level FlightAware ADS-B
Sat 04:10:35 AM 52.4352 -8.4182 101° East 549 632 35,000  Level FlightAware ADS-B (EPBY / BZG)
Sat 04:11:14 AM 52.4150 -8.2421 101° East 482 555 35,000  Level FlightAware UK
Sat 04:11:25 AM 52.4143 -8.2378 101° East 548 631 35,000  Level FlightAware ADS-B (EPBY / BZG)
Sat 04:11:55 AM 52.3964 -8.0848 101° East 547 629 35,000  Level FlightAware ADS-B
Sat 04:12:26 AM 52.3820 -7.9628 101° East 550 633 35,000  Level FlightAware ADS-B (EPBY / BZG)
Sat 04:13:16 AM 52.3627 -7.8023 101° East 556 640 35,000  Level FlightAware ADS-B (EPBY / BZG)
Sat 04:13:46 AM 52.3428 -7.6387 101° East 555 639 35,000  Level FlightAware ADS-B (EPBY / BZG)
Sat 04:14:16 AM 52.3298 -7.5321 101° East 553 636 35,000  Level FlightAware ADS-B (EPBY / BZG)
Sat 04:14:46 AM 52.3119 -7.3875 101° East 548 631 35,000  Level FlightAware ADS-B (EPBY / BZG)
Sat 04:15:17 AM 52.2975 -7.2722 101° East 545 627 35,000  Level FlightAware ADS-B (EPBY / BZG)
Sat 04:15:49 AM 52.2819 -7.1487 102° East 546 628 35,000  Level FlightAware ADS-B
Sat 04:16:20 AM 52.2638 -7.0055 102° East 551 634 35,000  Level FlightAware ADS-B (EIDW / DUB)
Sat 04:16:50 AM 52.2482 -6.8839 102° East 552 635 35,000  Level FlightAware ADS-B (EIDW / DUB)
Sat 04:17:21 AM 52.2326 -6.7639 102° East 550 633 35,000  Level FlightAware ADS-B (EIDW / DUB)
Sat 04:17:55 AM 52.2140 -6.6217 102° East 548 631 35,000  Level FlightAware ADS-B
Sat 04:18:34 AM 52.1947 -6.4752 102° East 548 631 35,000  Level FlightAware ADS-B
Sat 04:19:07 AM 52.1759 -6.3347 102° East 547 629 35,000  Level FlightAware ADS-B (EPBY / BZG)
Sat 04:19:37 AM 52.1611 -6.2246 102° East 543 625 35,000  Level FlightAware ADS-B (EPBY / BZG)
Sat 04:20:07 AM 52.1493 -6.1022 99° East 539 620 35,000  Level FlightAware ADS-B
Sat 04:20:37 AM 52.1405 -5.9777 97° East 541 623 35,000  Level FlightAware ADS-B (EPBY / BZG)
Sat 04:21:08 AM 52.1318 -5.8669 97° East 545 627 35,000  Level FlightAware ADS-B (EPBY / BZG)
Sat 04:21:40 AM 52.1190 -5.7160 98° East 547 629 35,000  Level FlightAware ADS-B (KAPA)
Sat 04:21:46 AM 52.1169 -5.6908 98° East 547 629 35,000  Level FlightAware ADS-B (KAPA)
Sat 04:22:17 AM 52.1062 -5.5685 98° East 549 632 35,000  Level FlightAware ADS-B
Sat 04:22:47 AM 52.0956 -5.4490 98° East 549 632 35,000  Level FlightAware ADS-B (EPBY / BZG)
Sat 04:23:17 AM 52.0845 -5.3240 98° East 546 628 35,000  Level FlightAware ADS-B (EPBY / BZG)
Sat 04:23:47 AM 52.0758 -5.2286 98° East 547 629 35,000  Level FlightAware ADS-B (EPBY / BZG)
Sat 04:24:17 AM 52.0627 -5.0843 98° East 547 629 35,000  Level FlightAware ADS-B (EPBY / BZG)
Sat 04:24:47 AM 52.0509 -4.9568 99° East 542 624 35,000  Level FlightAware ADS-B (EGCW)
Sat 04:24:50 AM 52.0498 -4.9448 99° East 542 624 35,000  Level FlightAware ADS-B (KAPA)
Sat 04:25:11 AM 52.0420 -4.8593 98° East 538 619 35,000  Level FlightAware ADS-B (KAPA)
Sat 04:25:42 AM 52.0309 -4.7392 98° East 538 619 35,000  Level FlightAware ADS-B
Sat 04:25:46 AM 52.0298 -4.7272 98° East 537 618 35,000  Level FlightAware ADS-B
Sat 04:26:12 AM 52.0197 -4.6181 99° East 539 620 35,000  Level FlightAware ADS-B
Sat 04:26:18 AM 52.0182 -4.6022 99° East 541 623 35,000  Level FlightAware ADS-B (EPBY / BZG)
Sat 04:26:48 AM 52.0072 -4.4867 99° East 542 624 35,000  Level FlightAware ADS-B (EPBY / BZG)
Sat 04:26:56 AM 52.0031 -4.4435 99° East 542 624 35,000  Level FlightAware ADS-B
Sat 04:27:18 AM 51.9948 -4.3573 99° East 539 620 35,000  Level FlightAware ADS-B (EGDX / DGX)
Sat 04:27:48 AM 51.9839 -4.2450 99° East 540 621 35,000  Level FlightAware ADS-B (EGSP)
Sat 04:27:59 AM 51.9786 -4.1909 99° East 539 620 35,000  Level FlightAware ADS-B
Sat 04:28:18 AM 51.9792 -4.1965 279° West 538 619 35,000  Level FlightAware ADS-B (EPBY / BZG)
Sat 04:28:30 AM 51.9665 -4.0678 99° East 538 619 35,000  Level FlightAware ADS-B
Sat 04:29:05 AM 51.9526 -3.9282 99° East 537 618 35,000  Level FlightAware ADS-B
Sat 04:29:08 AM 51.9564 -3.9655 279° West 537 618 35,000  Level FlightAware ADS-B (EPBY / BZG)
Sat 04:29:37 AM 51.9400 -3.8031 99° East 538 619 35,000  Level FlightAware ADS-B
Sat 04:29:38 AM 51.9396 -3.7991 100° East 538 619 35,000  Level FlightAware ADS-B (EGDM)
Sat 04:30:08 AM 51.9275 -3.6802 99° East 537 618 35,000  Level FlightAware ADS-B
Sat 04:30:21 AM 51.9220 -3.6265 99° East 535 616 35,000  Level FlightAware ADS-B (LKVR)
Sat 04:30:33 AM 51.9174 -3.5824 100° East 534 615 35,000  Level FlightAware ADS-B
Sat 04:30:38 AM 51.9151 -3.5603 100° East 534 615 35,000  Level FlightAware ADS-B
Sat 04:30:45 AM 51.9126 -3.5360 99° East 533 613 35,000  Level FlightAware ADS-B (KAPA)
Sat 04:30:51 AM 51.9100 -3.5108 100° East 533 613 35,000  Level FlightAware ADS-B (KAPA)
Sat 04:31:01 AM 51.9056 -3.4691 100° East 534 615 35,000  Level FlightAware ADS-B (LKVR)
Sat 04:31:09 AM 51.9028 -3.4416 99° East 535 616 35,000  Level FlightAware ADS-B
Sat 04:31:16 AM 51.9001 -3.4155 100° East 535 616 35,000  Level FlightAware ADS-B (EGDX / DGX)
Sat 04:31:45 AM 51.8878 -3.2991 100° East 536 617 35,000  Level FlightAware ADS-B
Sat 04:31:49 AM 51.8864 -3.2857 100° East 537 618 35,000  Level FlightAware ADS-B (EGCW)
Sat 04:31:52 AM 51.8846 -3.2691 100° East 536 617 35,000  Level FlightAware ADS-B (LKVR)
Sat 04:32:05 AM 51.8794 -3.2201 100° East 537 618 35,000  Level FlightAware ADS-B (LKVR)
Sat 04:32:10 AM 51.8783 -3.2098 100° East 537 618 35,000  Level FlightAware ADS-B (EGDX / DGX)
Sat 04:32:17 AM 51.8743 -3.1726 100° East 539 620 35,000  Level FlightAware ADS-B
Sat 04:32:36 AM 51.8662 -3.0967 100° East 537 618 35,000  Level FlightAware ADS-B (EGHH / BOH)
Sat 04:32:46 AM 51.8620 -3.0573 100° East 535 616 35,000  Level FlightAware ADS-B (EGHH / BOH)
Sat 04:32:51 AM 51.8597 -3.0360 100° East 536 617 35,000  Level FlightAware ADS-B
Sat 04:33:06 AM 51.8535 -2.9793 100° East 536 617 35,000  Level FlightAware ADS-B (EGHH / BOH)
Sat 04:33:17 AM 51.8486 -2.9344 100° East 535 616 35,000  Level FlightAware ADS-B (EGHH / BOH)
Sat 04:33:25 AM 51.8453 -2.9045 100° East 536 617 35,000  Level FlightAware ADS-B
Sat 04:33:26 AM 51.8446 -2.8982 100° East 535 616 35,000  Level FlightAware ADS-B (EGHH / BOH)
Sat 04:33:45 AM 51.8366 -2.8249 100° East 536 617 35,000  Level FlightAware ADS-B (EGHH / BOH)
Sat 04:34:00 AM 51.8301 -2.7659 100° East 536 617 35,000  Level FlightAware ADS-B
Sat 04:34:10 AM 51.8257 -2.7257 100° East 535 616 35,000  Level FlightAware ADS-B (EGHH / BOH)
Sat 04:34:30 AM 51.8168 -2.6462 100° East 537 618 35,000  Level FlightAware ADS-B
Sat 04:34:42 AM 51.8121 -2.6044 100° East 538 619 35,000  Level FlightAware ADS-B
Sat 04:35:01 AM 51.8031 -2.5251 100° East 535 616 35,000  Level FlightAware ADS-B
Sat 04:35:12 AM 51.7983 -2.4821 100° East 533 613 35,000  Level FlightAware ADS-B (KMKE)
Sat 04:35:35 AM 51.7882 -2.3935 100° East 532 612 35,000  Level FlightAware ADS-B
Sat 04:35:42 AM 51.7852 -2.3670 100° East 532 612 35,000  Level FlightAware ADS-B (LKVR)
Sat 04:36:05 AM 51.7746 -2.2745 100° East 532 612 35,000  Level FlightAware ADS-B
Sat 04:36:13 AM 51.7716 -2.2480 100° East 532 612 35,000  Level FlightAware ADS-B (EGDX / DGX)
Sat 04:36:39 AM 51.7598 -2.1459 101° East 534 615 35,000  Level FlightAware ADS-B
Sat 04:36:44 AM 51.7584 -2.1342 101° East 533 613 35,000  Level FlightAware ADS-B (EGLC / LCY)
Sat 04:37:09 AM 51.7458 -2.0267 101° East 533 613 35,000  Level FlightAware ADS-B
Sat 04:37:14 AM 51.7479 -2.0454 280° West 533 613 35,000  Level FlightAware ADS-B
Sat 04:37:40 AM 51.7315 -1.9058 101° East 535 616 35,000  Level FlightAware ADS-B
Sat 04:37:44 AM 51.7299 -1.8925 101° East 535 616 35,000  Level FlightAware ADS-B
Sat 04:38:12 AM 51.7167 -1.7815 101° East 536 617 35,000  Level FlightAware ADS-B
Sat 04:38:15 AM 51.7154 -1.7705 101° East 536 617 35,000  Level FlightAware ADS-B (EGDM)
Sat 04:38:31 AM 51.7081 -1.7095 101° East 536 617 35,000  Level FlightAware ADS-B (EGHH / BOH)
Sat 04:38:41 AM 51.7032 -1.6688 101° East 536 617 35,000  Level FlightAware ADS-B (EGHH / BOH)
Sat 04:38:43 AM 51.7020 -1.6595 101° East 537 618 35,000  Level FlightAware ADS-B
Sat 04:39:12 AM 51.6889 -1.5508 101° East 537 618 35,000  Level FlightAware ADS-B
Sat 04:39:15 AM 51.6871 -1.5359 101° East 537 618 35,000  Level FlightAware ADS-B
Sat 04:39:27 AM 51.6814 -1.4897 101° East 537 618 35,000  Level FlightAware ADS-B (LSXS)
Sat 04:39:31 AM 51.6791 -1.4717 101° East 538 619 35,000  Level FlightAware ADS-B (EGHH / BOH)
Sat 04:39:45 AM 51.6725 -1.4174 101° East 540 621 35,000  Level FlightAware ADS-B
Sat 04:39:48 AM 51.6712 -1.4064 101° East 539 620 35,000  Level FlightAware ADS-B (EGHH / BOH)
Sat 04:39:56 AM 51.6672 -1.3741 101° East 538 619 35,000  Level FlightAware ADS-B (KAPA)
Sat 04:40:16 AM 51.6580 -1.2970 101° East 540 621 35,000  Level FlightAware ADS-B
Sat 04:40:26 AM 51.6535 -1.2585 101° East 539 620 35,000  Level FlightAware ADS-B (EGLC / LCY)
Sat 04:40:46 AM 51.6439 -1.1776 101° East 538 619 35,000  Level FlightAware ADS-B
Sat 04:40:56 AM 51.6393 -1.1376 101° East 538 619 35,000  Level FlightAware ADS-B
Sat 04:41:17 AM 51.6295 -1.0537 101° East 537 618 35,000  Level FlightAware ADS-B
Sat 04:41:27 AM 51.6266 -1.0294 101° East 538 619 35,000  Level FlightAware ADS-B
Sat 04:41:48 AM 51.6154 -0.9354 101° East 538 619 35,000  Level FlightAware ADS-B
Sat 04:42:03 AM 51.6095 -0.8854 101° East 536 617 35,000  Level FlightAware ADS-B (EGDM)
Sat 04:42:18 AM 51.6014 -0.8166 101° East 535 616 35,000  Level FlightAware ADS-B
Sat 04:42:34 AM 51.5945 -0.7581 101° East 535 616 35,000  Level FlightAware ADS-B (EGDM)
Sat 04:42:45 AM 51.5891 -0.7113 101° East 537 618 35,000  Level FlightAware ADS-B
Sat 04:43:11 AM 51.5785 -0.6197 100° East 538 619 35,000  Level FlightAware ADS-B (EGLC / LCY)
Sat 04:43:16 AM 51.5753 -0.5915 100° East 538 619 35,000  Level FlightAware ADS-B
Sat 04:43:23 AM 51.5722 -0.5641 100° East 537 618 35,000  Level FlightAware ADS-B (EGDM)
Sat 04:43:33 AM 51.5677 -0.5250 100° East 537 618 35,000  Level FlightAware ADS-B (EGHH / BOH)
Sat 04:43:47 AM 51.5613 -0.4702 101° East 537 618 35,000  Level FlightAware ADS-B
Sat 04:44:04 AM 51.5534 -0.4040 101° East 534 615 35,000  Level FlightAware ADS-B
Sat 04:44:17 AM 51.5471 -0.3512 101° East 534 615 35,000  Level FlightAware ADS-B
Sat 04:44:28 AM 51.5421 -0.3101 101° East 533 613 35,000  Level FlightAware ADS-B (LSXS)
Sat 04:44:36 AM 51.5384 -0.2799 101° East 532 612 35,000  Level FlightAware ADS-B (EGHI / SOU)
Sat 04:44:47 AM 51.5329 -0.2349 101° East 533 613 35,000  Level FlightAware ADS-B
Sat 04:45:08 AM 51.5232 -0.1551 101° East 534 615 35,000  Level FlightAware ADS-B (LSXS)
Sat 04:45:17 AM 51.5187 -0.1180 101° East 534 615 35,000  Level FlightAware ADS-B
Sat 04:45:39 AM 51.5089 -0.0366 101° East 533 613 35,000  Level FlightAware ADS-B (EGLC / LCY)
Sat 04:45:49 AM 51.5038 0.0052 101° East 533 613 35,000  Level FlightAware ADS-B
Sat 04:46:09 AM 51.4962 0.0686 101° East 533 613 35,000  Level FlightAware ADS-B (EGLC / LCY)
Sat 04:46:20 AM 51.4898 0.1226 101° East 531 611 35,000  Level FlightAware ADS-B
Sat 04:46:41 AM 51.4804 0.2021 101° East 531 611 35,000  Level FlightAware ADS-B
Sat 04:46:51 AM 51.4758 0.2414 101° East 531 611 35,000  Level FlightAware ADS-B
Sat 04:47:11 AM 51.4666 0.3209 101° East 531 611 35,000  Level FlightAware ADS-B
Sat 04:47:16 AM 51.4650 0.3340 101° East 531 611 35,000  Level FlightAware ADS-B
Sat 04:47:22 AM 51.4619 0.3618 100° East 531 611 35,000  Level FlightAware ADS-B
Sat 04:47:24 AM 51.4611 0.3687 101° East 531 611 35,000  Level FlightAware ADS-B
Sat 04:47:53 AM 51.4478 0.4843 100° East 530 610 35,000  Level FlightAware ADS-B
Sat 04:48:05 AM 51.4428 0.5290 100° East 530 610 35,000  Level FlightAware ADS-B (EGLC / LCY)
Sat 04:48:17 AM 51.4381 0.5706 100° East 529 609 35,000  Level FlightAware ADS-B
Sat 04:48:24 AM 51.4348 0.5999 100° East 530 610 35,000  Level FlightAware ADS-B
Sat 04:48:31 AM 51.4321 0.6238 100° East 532 612 35,000  Level FlightAware ADS-B
Sat 04:48:55 AM 51.4206 0.7227 101° East 532 612 35,000  Level FlightAware ADS-B
Sat 04:49:01 AM 51.4182 0.7435 100° East 532 612 35,000  Level FlightAware ADS-B (LSXS)
Sat 04:49:26 AM 51.4072 0.8399 100° East 531 611 35,000  Level FlightAware ADS-B
Sat 04:49:32 AM 51.4054 0.8553 100° East 531 611 35,000  Level FlightAware ADS-B (EGLC / LCY)
Sat 04:49:56 AM 51.3939 0.9570 100° East 530 610 35,000  Level FlightAware ADS-B
Sat 04:49:58 AM 51.3934 0.9609 101° East 530 610 35,000  Level FlightAware ADS-B
Sat 04:50:09 AM 51.3885 1.0048 100° East 529 609 35,000  Level FlightAware ADS-B
Sat 04:50:21 AM 51.3834 1.0511 100° East 529 609 35,000  Level FlightAware ADS-B
Sat 04:50:29 AM 51.3797 1.0842 100° East 530 610 35,000  Level FlightAware ADS-B
Sat 04:50:39 AM 51.3756 1.1211 100° East 529 609 35,000  Level FlightAware ADS-B
Sat 04:51:00 AM 51.3664 1.2033 100° East 529 609 35,000  Level FlightAware ADS-B
Sat 04:51:02 AM 51.3657 1.2102 100° East 528 608 35,000  Level FlightAware ADS-B
Sat 04:51:12 AM 51.3615 1.2479 100° East 529 609 35,000  Level FlightAware ADS-B
Sat 04:51:32 AM 51.3528 1.3249 100° East 531 611 35,000  Level FlightAware ADS-B
Sat 04:51:43 AM 51.3479 1.3672 100° East 531 611 35,000  Level FlightAware ADS-B
Sat 04:52:03 AM 51.3387 1.4465 100° East 531 611 35,000  Level FlightAware ADS-B
Sat 04:52:21 AM 51.3299 1.5105 102° East 530 610 35,000  Level FlightAware ADS-B (EGLC / LCY)
Sat 04:52:33 AM 51.3224 1.5613 103° East 529 609 35,000  Level FlightAware ADS-B
Sat 04:52:52 AM 51.3120 1.6322 103° East 526 605 35,000  Level FlightAware ADS-B
Sat 04:53:05 AM 51.3047 1.6819 103° East 525 604 35,000  Level FlightAware ADS-B
Sat 04:53:22 AM 51.2963 1.7407 103° East 525 604 35,000  Level FlightAware ADS-B
Sat 04:53:37 AM 51.2878 1.8003 103° East 525 604 35,000  Level FlightAware ADS-B
Sat 04:54:04 AM 51.2735 1.9003 103° East 522 601 35,000  Level FlightAware ADS-B
Sat 04:54:07 AM 51.2717 1.9130 103° East 522 601 35,000  Level FlightAware ADS-B
Sat 04:54:34 AM 51.2576 2.0115 103° East 519 597 35,000  Level FlightAware ADS-B
Sat 04:54:39 AM 51.2547 2.0315 103° East 519 597 35,000  Level FlightAware ADS-B
Sat 04:55:06 AM 51.2403 2.1309 103° East 516 594 35,000  Level FlightAware ADS-B
Sat 04:55:24 AM 51.2330 2.1812 103° East 515 593 35,000  Level FlightAware ADS-B
Sat 04:55:38 AM 51.2242 2.2417 103° East 515 593 35,000  Level FlightAware ADS-B (EGLF / FAB)
Sat 04:55:58 AM 51.2118 2.3263 103° East 514 592 35,000  Level FlightAware ADS-B
Sat 04:56:16 AM 51.2028 2.3876 103° East 515 593 35,000  Level FlightAware ADS-B
Sat 04:56:29 AM 51.1954 2.4379 103° East 519 597 35,000  Level FlightAware ADS-B
Sat 04:56:47 AM 51.1855 2.5048 103° East 518 596 35,000  Level FlightAware ADS-B
Sat 04:57:19 AM 51.1676 2.6246 103° East 519 597 35,000  Level FlightAware ADS-B
Sat 04:57:49 AM 51.1508 2.7370 103° East 520 598 35,000  Level FlightAware ADS-B
Sat 04:58:35 AM 51.1268 2.8950 104° East 518 596 35,000  Level FlightAware ADS-B (EGLC / LCY)
Sat 04:58:41 AM 51.1220 2.9267 104° East 517 595 35,000  Level FlightAware ADS-B (EGLC / LCY)
Sat 04:58:52 AM 51.1155 2.9694 104° East 514 592 35,000  Level FlightAware ADS-B
Sat 04:59:35 AM 51.0920 3.1200 104° East 516 594 35,000  Level FlightAware ADS-B
Sat 04:59:37 AM 51.0891 3.1410 104° East 476 548 35,000  Level FlightAware UK
Sat 04:59:56 AM 51.0813 3.1913 103° East 518 596 35,000  Level FlightAware ADS-B
Sat 05:00:31 AM 51.0592 3.3331 104° East 520 598 35,000  Level FlightAware ADS-B
Sat 05:01:10 AM 51.0362 3.4795 104° East 515 593 35,000  Level FlightAware ADS-B
Sat 05:01:58 AM 51.0083 3.6555 104° East 507 583 35,000  Level FlightAware ADS-B
Sat 05:02:31 AM 50.9885 3.7784 104° East 470 541 35,000  Level FlightAware UK
Sat 05:02:37 AM 50.9880 3.7840 104° East 510 587 35,000  Level FlightAware ADS-B
Sat 05:03:09 AM 50.9670 3.9090 105° East 512 589 35,000  Level FlightAware ADS-B
Sat 05:03:59 AM 50.9390 4.0810 104° East 513 590 35,000  Level FlightAware ADS-B
Sat 05:04:55 AM 50.9032 4.3004 104° East 476 548 35,000  Level FlightAware UK
Sat 05:05:08 AM 50.8970 4.3390 104° East 509 586 35,000  Level FlightAware ADS-B
Sat 05:05:38 AM 50.8781 4.4524 104° East 476 548 35,000  Level FlightAware UK
Sat 05:05:42 AM 50.8770 4.4600 104° East 509 586 35,000  Level FlightAware ADS-B
Sat 05:06:24 AM 50.8510 4.6110 105° East 506 582 35,000  Level FlightAware ADS-B
Sat 05:07:13 AM 50.8230 4.7800 105° East 500 575 35,000  Level FlightAware ADS-B
Sat 05:07:56 AM 50.7960 4.9380 105° East 501 577 35,000  Level FlightAware ADS-B
Sat 05:08:31 AM 50.7750 5.0590 105° East 503 579 35,000  Level FlightAware ADS-B
Sat 05:09:11 AM 50.7500 5.2020 105° East 504 580 35,000  Level FlightAware ADS-B
Sat 05:09:47 AM 50.7280 5.3260 106° East 506 582 35,000  Level FlightAware ADS-B
Sat 05:10:24 AM 50.7050 5.4550 106° East 508 585 35,000  Level FlightAware ADS-B
Sat 05:10:57 AM 50.6840 5.5780 105° East 506 582 35,000  Level FlightAware ADS-B
Sat 05:12:10 AM 50.6380 5.8310 106° East 507 583 35,000  Level FlightAware ADS-B
Sat 05:12:48 AM 50.6125 5.9714 106° East 510 587 35,000  Level FlightAware ADS-B
Sat 05:13:22 AM 50.5943 6.0714 106° East 509 586 35,000  Level FlightAware ADS-B (EDKL)
Sat 05:14:01 AM 50.5698 6.2042 106° East 510 587 35,000  Level FlightAware ADS-B
Sat 05:14:31 AM 50.5450 6.3378 106° East 505 581 35,000  Level FlightAware ADS-B
Sat 05:15:03 AM 50.5276 6.4315 106° East 501 577 35,000  Level FlightAware ADS-B
Sat 05:15:45 AM 50.4968 6.5951 106° East 506 582 35,000  Level FlightAware ADS-B
Sat 05:16:16 AM 50.4755 6.7074 107° East 511 588 35,000  Level FlightAware ADS-B
Sat 05:16:49 AM 50.4544 6.8182 107° East 513 590 35,000  Level FlightAware ADS-B
Sat 05:17:20 AM 50.4328 6.9311 107° East 512 589 35,000  Level FlightAware ADS-B
Sat 05:17:59 AM 50.4284 6.9544 107° East 511 588 35,000  Level FlightAware ADS-B
Sat 05:18:30 AM 50.3891 7.1579 107° East 512 589 35,000  Level FlightAware ADS-B
Sat 05:19:39 AM 50.3364 7.4271 107° East 518 596 35,000  Level FlightAware ADS-B
Sat 05:20:25 AM 50.3060 7.5790 107° East 519 597 35,000  Level FlightAware ADS-B
Sat 05:21:07 AM 50.2750 7.7350 107° East 515 593 35,000  Level FlightAware ADS-B
Sat 05:21:44 AM 50.2610 7.8700 99° East 519 597 35,000  Level FlightAware ADS-B
Sat 05:22:23 AM 50.2530 8.0130 95° East 516 594 35,000  Level FlightAware ADS-B
Sat 05:23:17 AM 50.2420 8.2150 95° East 520 598 35,000  Level FlightAware ADS-B
Sat 05:24:29 AM 50.2280 8.4780 95° East 515 593 35,000  Level FlightAware ADS-B
Sat 05:25:01 AM 50.2210 8.6000 95° East 503 579 35,000  Level FlightAware ADS-B
Sat 05:25:41 AM 50.2120 8.7470 95° East 511 588 35,000  Level FlightAware ADS-B
Sat 05:26:25 AM 50.2020 8.9070 96° East 514 592 35,000  Level FlightAware ADS-B
Sat 05:26:59 AM 50.1940 9.0340 96° East 514 592 35,000  Level FlightAware ADS-B
Sat 05:27:30 AM 50.1870 9.1470 95° East 513 590 35,000  Level FlightAware ADS-B
Sat 05:28:22 AM 50.1750 9.3340 96° East 504 580 35,000  Level FlightAware ADS-B
Sat 05:29:08 AM 50.1640 9.5010 96° East 509 586 35,000  Level FlightAware ADS-B
Sat 05:29:51 AM 50.1540 9.6610 96° East 506 582 35,000  Level FlightAware ADS-B
Sat 05:30:28 AM 50.1440 9.7970 96° East 506 582 35,000  Level FlightAware ADS-B
Sat 05:31:08 AM 50.1340 9.9420 96° East 508 585 35,000  Level FlightAware ADS-B
Sat 05:31:48 AM 50.1230 10.0890 97° East 517 595 35,000  Level FlightAware ADS-B
Sat 05:32:28 AM 50.1130 10.2330 96° East 526 605 35,000  Level FlightAware ADS-B
Sat 05:33:02 AM 50.1030 10.3600 97° East 524 603 35,000  Level FlightAware ADS-B
Sat 05:33:38 AM 50.0930 10.4990 96° East 520 598 35,000  Level FlightAware ADS-B
Sat 05:34:36 AM 50.0770 10.7140 97° East 519 597 35,000  Level FlightAware ADS-B
Sat 05:35:16 AM 50.0750 10.8630 91° East 525 604 35,000  Level FlightAware ADS-B
Sat 05:35:48 AM 50.0750 10.9840 90° East 524 603 35,000  Level FlightAware ADS-B
Sat 05:36:20 AM 50.0750 11.1040 90° East 522 601 35,000  Level FlightAware ADS-B
Sat 05:37:04 AM 50.0750 11.2670 90° East 521 600 35,000  Level FlightAware ADS-B
Sat 05:37:36 AM 50.0740 11.3890 91° East 522 601 35,000  Level FlightAware ADS-B
Sat 05:38:42 AM 50.0730 11.6370 90° East 523 602 35,000  Level FlightAware ADS-B
Sat 05:39:22 AM 50.0720 11.7840 91° East 524 603 35,000  Level FlightAware ADS-B
Sat 05:40:04 AM 50.0700 11.9440 91° East 531 611 35,000  Level FlightAware ADS-B
Sat 05:40:42 AM 50.0690 12.0900 91° East 536 617 35,000  Level FlightAware ADS-B
Sat 05:41:16 AM 50.0680 12.2230 91° East 538 619 35,000  Level FlightAware ADS-B
Sat 05:42:01 AM 50.0650 12.3840 92° East 536 617 35,000  Level FlightAware ADS-B
Sat 05:42:33 AM 50.0680 12.5180 88° East 533 613 35,000  Level FlightAware ADS-B
Sat 05:43:11 AM 50.0722 12.6612 87° East 538 619 35,000  Level FlightAware ADS-B
Sat 05:43:48 AM 50.0760 12.7980 87° East 539 620 35,000  Level FlightAware ADS-B
Sat 05:44:06 AM 50.0777 12.8797 88° East 541 623 35,000  Level FlightAware ADS-B
Sat 05:44:36 AM 50.0805 12.9957 88° East 544 626 35,000  Level FlightAware ADS-B
Sat 05:45:16 AM 50.0824 13.1362 89° East 546 628 35,000  Level FlightAware ADS-B
Sat 05:45:48 AM 50.0875 13.2780 87° East 552 635 35,000  Level FlightAware ADS-B
Sat 05:46:35 AM 50.0932 13.4613 87° East 548 631 35,000  Level FlightAware ADS-B
Sat 05:47:05 AM 50.0947 13.5634 89° East 548 631 35,000  Level FlightAware ADS-B
Sat 05:47:35 AM 50.0969 13.6964 88° East 547 629 35,000  Level FlightAware ADS-B
Sat 05:48:14 AM 50.0976 13.8414 90° East 544 626 35,000  Level FlightAware ADS-B
Sat 05:48:45 AM 50.0968 13.9665 91° East 545 627 35,000  Level FlightAware ADS-B
Sat 05:49:17 AM 50.0964 14.0805 90° East 544 626 35,000  Level FlightAware ADS-B
Sat 05:49:57 AM 50.0956 14.2517 90° East 546 628 35,000  Level FlightAware ADS-B
Sat 05:50:35 AM 50.0939 14.3786 91° East 551 634 35,000  Level FlightAware ADS-B
Sat 05:51:28 AM 50.0864 14.6083 93° East 552 635 35,000  Level FlightAware ADS-B
Sat 05:52:00 AM 50.0820 14.7360 93° East 537 618 35,000  Level FlightAware ADS-B
Sat 05:52:44 AM 50.0780 14.8910 92° East 516 594 35,000  Level FlightAware ADS-B
Sat 05:53:16 AM 50.0730 15.0190 93° East 522 601 35,000  Level FlightAware ADS-B
Sat 05:54:00 AM 50.0670 15.1820 93° East 534 615 35,000  Level FlightAware ADS-B
Sat 05:54:45 AM 50.0610 15.3520 93° East 535 616 35,000  Level FlightAware ADS-B
Sat 05:55:24 AM 50.0560 15.5030 93° East 533 613 35,000  Level FlightAware ADS-B
Sat 05:56:04 AM 50.0500 15.6580 93° East 534 615 35,000  Level FlightAware ADS-B
Sat 05:56:45 AM 50.0430 15.8190 94° East 537 618 35,000  Level FlightAware ADS-B
Sat 05:57:25 AM 50.0370 15.9640 94° East 543 625 35,000  Level FlightAware ADS-B
Sat 05:58:10 AM 50.0300 16.1430 93° East 545 627 35,000  Level FlightAware ADS-B
Sat 05:58:38 AM 50.0250 16.2520 94° East 542 624 35,000  Level FlightAware ADS-B
Sat 05:59:52 AM 50.0120 16.5350 94° East 531 611 35,000  Level FlightAware ADS-B
Sat 06:00:27 AM 50.0050 16.6730 94° East 531 611 35,000  Level FlightAware ADS-B
Sat 06:01:11 AM 49.9980 16.8350 94° East 535 616 35,000  Level FlightAware ADS-B
Sat 06:02:00 AM 49.9880 17.0270 95° East 539 620 35,000  Level FlightAware ADS-B
Sat 06:02:39 AM 49.9800 17.1770 95° East 538 619 35,000  Level FlightAware ADS-B
Sat 06:03:20 AM 49.9720 17.3330 94° East 536 617 35,000  Level FlightAware ADS-B
Sat 06:04:21 AM 49.9600 17.5570 95° East 536 617 35,000  Level FlightAware ADS-B
Sat 06:05:24 AM 49.9450 17.8030 95° East 539 620 35,000  Level FlightAware ADS-B
Sat 06:06:01 AM 49.9370 17.9520 95° East 543 625 35,000  Level FlightAware ADS-B
Sat 06:06:37 AM 49.9310 18.0940 94° East 550 633 35,000  Level FlightAware ADS-B
Sat 06:07:12 AM 49.9330 18.2270 89° East 554 638 35,000  Level FlightAware ADS-B
Sat 06:08:16 AM 49.9360 18.4850 89° East 556 640 35,000 667 Level FlightAware ADS-B
Sat 06:09:00 AM 49.9370 18.6570 89° East 548 631 36,200 1,143 Climbing FlightAware ADS-B
Sat 06:09:40 AM 49.9390 18.8130 89° East 549 632 36,600 632 Climbing FlightAware ADS-B
Sat 06:10:16 AM 49.9400 18.9560 89° East 546 628 37,000 312 Climbing FlightAware ADS-B
Sat 06:10:57 AM 49.9400 19.1150 90° East 538 619 37,000  Level FlightAware ADS-B
Sat 06:11:57 AM 49.9410 19.3480 90° East 541 623 37,000  Level FlightAware ADS-B
Sat 06:12:40 AM 49.9410 19.5110 90° East 544 626 37,000  Level FlightAware ADS-B
Sat 06:13:36 AM 49.9410 19.7310 90° East 544 626 37,000  Level FlightAware ADS-B
Sat 06:14:16 AM 49.9400 19.8870 91° East 542 624 37,000  Level FlightAware ADS-B
Sat 06:15:00 AM 49.9400 20.0540 90° East 541 623 37,000  Level FlightAware ADS-B
Sat 06:15:42 AM 49.9390 20.2190 90° East 538 619 37,000  Level FlightAware ADS-B
Sat 06:16:50 AM 49.9370 20.4800 91° East 537 618 37,000  Level FlightAware ADS-B
Sat 06:17:38 AM 49.9350 20.6600 91° East 534 615 37,000  Level FlightAware ADS-B
Sat 06:18:15 AM 49.9340 20.8040 91° East 536 617 37,000  Level FlightAware ADS-B
Sat 06:18:50 AM 49.9330 20.9400 91° East 533 613 37,000  Level FlightAware ADS-B
Sat 06:19:30 AM 49.9310 21.0930 91° East 534 615 37,000  Level FlightAware ADS-B
Sat 06:20:08 AM 49.9290 21.2360 91° East 537 618 37,000  Level FlightAware ADS-B
Sat 06:20:36 AM 49.9270 21.3440 92° East 537 618 37,000  Level FlightAware ADS-B
Sat 06:21:48 AM 49.9230 21.6190 91° East 535 616 37,000  Level FlightAware ADS-B
Sat 06:22:26 AM 49.9200 21.7670 92° East 532 612 37,000  Level FlightAware ADS-B
Sat 06:23:06 AM 49.9170 21.9130 92° East 531 611 37,000  Level FlightAware ADS-B
Sat 06:23:50 AM 49.9130 22.0820 92° East 532 612 37,000  Level FlightAware ADS-B
Sat 06:24:22 AM 49.9110 22.2050 91° East 533 613 37,000  Level FlightAware ADS-B
Sat 06:24:54 AM 49.9080 22.3260 92° East 532 612 37,000  Level FlightAware ADS-B
Sat 06:25:38 AM 49.9040 22.4920 92° East 529 609 37,000  Level FlightAware ADS-B
Sat 06:26:06 AM 49.9010 22.5960 93° East 525 604 37,000  Level FlightAware ADS-B
Sat 06:26:46 AM 49.8970 22.7450 92° East 525 604 37,000  Level FlightAware ADS-B
Sat 06:27:30 AM 49.8930 22.9120 92° East 526 605 37,000  Level FlightAware ADS-B
Sat 06:28:06 AM 49.8790 23.0510 99° East 522 601 37,000  Level FlightAware ADS-B
Sat 06:28:46 AM 49.8600 23.1930 102° East 522 601 37,000  Level FlightAware ADS-B
Sat 06:29:26 AM 49.8410 23.3450 101° East 521 600 37,000  Level FlightAware ADS-B
Sat 06:29:58 AM 49.8260 23.4570 102° East 521 600 37,000  Level FlightAware ADS-B
Sat 06:30:38 AM 49.8060 23.6030 102° East 517 595 37,000  Level FlightAware ADS-B
Sat 06:31:18 AM 49.7870 23.7460 102° East 515 593 37,000  Level FlightAware ADS-B
Sat 06:31:56 AM 49.7680 23.8830 102° East 515 593 37,000  Level FlightAware ADS-B
Sat 06:32:34 AM 49.7500 24.0140 102° East 517 595 37,000  Level FlightAware ADS-B
Sat 06:33:12 AM 49.7300 24.1600 102° East 517 595 37,000  Level FlightAware ADS-B (EGOD)
Sat 06:34:26 AM 49.6920 24.4270 102° East 518 596 37,000  Level FlightAware ADS-B (EGOD)
Sat 06:34:59 AM 49.6750 24.5460 102° East 515 593 37,000  Level FlightAware ADS-B (EGOD)
Sat 06:35:35 AM 49.6560 24.6730 103° East 514 592 37,000  Level FlightAware ADS-B (EGOD)
Sat 06:36:05 AM 49.6410 24.7780 102° East 515 593 37,000  Level FlightAware ADS-B (EGOD)
Sat 06:36:39 AM 49.6230 24.8990 103° East 516 594 37,000  Level FlightAware ADS-B (EGOD)
Sat 06:37:22 AM 49.6000 25.0560 103° East 512 589 37,000  Level FlightAware ADS-B
Sat 06:38:11 AM 49.5760 25.2220 103° East 507 583 37,000  Level FlightAware ADS-B
Sat 06:39:22 AM 49.5370 25.4730 103° East 502 578 37,000  Level FlightAware ADS-B
Sat 06:40:00 AM 49.5170 25.6040 103° East 505 581 37,000  Level FlightAware ADS-B
Sat 06:40:32 AM 49.5000 25.7150 103° East 506 582 37,000  Level FlightAware ADS-B
Sat 06:41:47 AM 49.4590 25.9800 103° East 505 581 37,000  Level FlightAware ADS-B
Sat 06:42:23 AM 49.4400 26.1010 104° East 505 581 37,000  Level FlightAware ADS-B
Sat 06:43:07 AM 49.4140 26.2600 104° East 507 583 37,000  Level FlightAware ADS-B
Sat 06:43:49 AM 49.3910 26.4040 104° East 506 582 37,000  Level FlightAware ADS-B
Sat 06:44:18 AM 49.3770 26.4930 104° East 503 579 37,000  Level FlightAware ADS-B
Sat 06:45:01 AM 49.3510 26.6530 104° East 503 579 37,000  Level FlightAware ADS-B
Sat 06:45:41 AM 49.3270 26.7930 105° East 503 579 37,000  Level FlightAware ADS-B
Sat 06:46:18 AM 49.3080 26.9130 104° East 500 575 37,000  Level FlightAware ADS-B
Sat 06:47:03 AM 49.2800 27.0750 105° East 500 575 37,000  Level FlightAware ADS-B
Sat 06:47:49 AM 49.2540 27.2310 104° East 503 579 37,000  Level FlightAware ADS-B
Sat 06:48:15 AM 49.2390 27.3180 105° East 503 579 37,000  Level FlightAware ADS-B
Sat 06:48:51 AM 49.2180 27.4390 105° East 503 579 37,000  Level FlightAware ADS-B
Sat 06:49:23 AM 49.2000 27.5470 104° East 504 580 37,000  Level FlightAware ADS-B
Sat 06:50:01 AM 49.1760 27.6850 105° East 507 583 37,000  Level FlightAware ADS-B
Sat 06:50:43 AM 49.1550 27.8340 102° East 511 588 37,000  Level FlightAware ADS-B
Sat 06:51:11 AM 49.1440 27.9360 99° East 510 587 37,000  Level FlightAware ADS-B
Sat 06:51:51 AM 49.1300 28.0760 99° East 510 587 37,000  Level FlightAware ADS-B
Sat 06:52:31 AM 49.1140 28.2190 100° East 508 585 37,000  Level FlightAware ADS-B
Sat 06:53:07 AM 49.0990 28.3450 100° East 507 583 37,000  Level FlightAware ADS-B
Sat 06:53:39 AM 49.0860 28.4570 100° East 506 582 37,000  Level FlightAware ADS-B
Sat 06:54:39 AM 49.0620 28.6670 100° East 508 585 37,000  Level FlightAware ADS-B
Sat 06:55:27 AM 49.0410 28.8370 101° East 508 585 37,000  Level FlightAware ADS-B
Sat 06:56:01 AM 49.0270 28.9550 100° East 507 583 37,000  Level FlightAware ADS-B
Sat 06:56:35 AM 49.0130 29.0750 100° East 506 582 37,000  Level FlightAware ADS-B
Sat 06:57:19 AM 48.9940 29.2290 101° East 507 583 37,000  Level FlightAware ADS-B
Sat 06:57:59 AM 48.9770 29.3680 101° East 507 583 37,000  Level FlightAware ADS-B
Sat 06:58:39 AM 48.9590 29.5100 101° East 507 583 37,000  Level FlightAware ADS-B
Sat 06:59:17 AM 48.9420 29.6440 101° East 508 585 37,000  Level FlightAware ADS-B
Sat 06:59:55 AM 48.9250 29.7740 101° East 509 586 37,000  Level FlightAware ADS-B
Sat 07:00:39 AM 48.9060 29.9260 101° East 509 586 37,000  Level FlightAware ADS-B
Sat 07:01:11 AM 48.8910 30.0400 101° East 509 586 37,000  Level FlightAware ADS-B
Sat 07:01:47 AM 48.8740 30.1660 102° East 509 586 37,000  Level FlightAware ADS-B
Sat 07:02:31 AM 48.8530 30.3210 102° East 510 587 37,000  Level FlightAware ADS-B
Sat 07:03:03 AM 48.8390 30.4320 101° East 508 585 37,000  Level FlightAware ADS-B
Sat 07:03:34 AM 48.8240 30.5390 102° East 507 583 37,000  Level FlightAware ADS-B
Sat 07:04:18 AM 48.8030 30.6910 102° East 505 581 37,000  Level FlightAware ADS-B
Sat 07:05:06 AM 48.7800 30.8610 102° East 506 582 37,000  Level FlightAware ADS-B
Sat 07:05:42 AM 48.7630 30.9840 102° East 505 581 37,000  Level FlightAware ADS-B
Sat 07:06:20 AM 48.7440 31.1170 102° East 505 581 37,000  Level FlightAware ADS-B
Sat 07:07:02 AM 48.7240 31.2610 102° East 504 580 37,000  Level FlightAware ADS-B
Sat 07:08:08 AM 48.6910 31.4880 102° East 500 575 37,000  Level FlightAware ADS-B
Sat 07:08:44 AM 48.6740 31.6070 102° East 500 575 37,000  Level FlightAware ADS-B
Sat 07:09:20 AM 48.6560 31.7290 103° East 501 577 37,000  Level FlightAware ADS-B
Sat 07:09:55 AM 48.6380 31.8500 103° East 499 574 37,000  Level FlightAware ADS-B
Sat 07:10:36 AM 48.6180 31.9880 102° East 498 573 37,000  Level FlightAware ADS-B
Sat 07:11:00 AM 48.6060 32.0680 103° East 499 574 37,000  Level FlightAware ADS-B
Sat 07:11:51 AM 48.5800 32.2360 103° East 499 574 37,000  Level FlightAware ADS-B
Sat 07:12:33 AM 48.5580 32.3840 103° East 501 577 37,000  Level FlightAware ADS-B
Sat 07:13:06 AM 48.5410 32.4960 103° East 501 577 37,000  Level FlightAware ADS-B
Sat 07:14:06 AM 48.5100 32.7010 103° East 505 581 37,000  Level FlightAware ADS-B
Sat 07:14:51 AM 48.4890 32.8560 101° East 507 583 37,000  Level FlightAware ADS-B
Sat 07:15:21 AM 48.4750 32.9580 102° East 507 583 37,000  Level FlightAware ADS-B
Sat 07:16:01 AM 48.4550 33.0980 102° East 508 585 37,000  Level FlightAware ADS-B
Sat 07:16:31 AM 48.4410 33.1980 102° East 510 587 37,000  Level FlightAware ADS-B
Sat 07:17:16 AM 48.4180 33.3570 102° East 507 583 37,000  Level FlightAware ADS-B
Sat 07:17:51 AM 48.4010 33.4750 102° East 506 582 37,000  Level FlightAware ADS-B
Sat 07:18:31 AM 48.3810 33.6150 102° East 505 581 37,000  Level FlightAware ADS-B
Sat 07:19:11 AM 48.3610 33.7510 102° East 505 581 37,000  Level FlightAware ADS-B
Sat 07:19:41 AM 48.3460 33.8500 103° East 504 580 37,000  Level FlightAware ADS-B
Sat 07:20:11 AM 48.3300 33.9540 103° East 505 581 37,000  Level FlightAware ADS-B
Sat 07:20:46 AM 48.3120 34.0750 103° East 505 581 37,000  Level FlightAware ADS-B
Sat 07:22:01 AM 48.2740 34.3280 103° East 503 579 37,000  Level FlightAware ADS-B
Sat 07:22:50 AM 48.2470 34.5000 103° East 503 579 37,000  Level FlightAware ADS-B
Sat 07:23:34 AM 48.2240 34.6470 103° East 502 578 37,000  Level FlightAware ADS-B
Sat 07:24:15 AM 48.2030 34.7840 103° East 502 578 37,000  Level FlightAware ADS-B
Sat 07:24:42 AM 48.1880 34.8770 104° East 501 577 37,000  Level FlightAware ADS-B
Sat 07:25:22 AM 48.1660 35.0130 104° East 501 577 37,000  Level FlightAware ADS-B
Sat 07:26:11 AM 48.1400 35.1780 103° East 505 581 37,000  Level FlightAware ADS-B
Sat 07:27:25 AM 48.0990 35.4300 104° East 504 580 37,000  Level FlightAware ADS-B
Sat 07:28:02 AM 48.0780 35.5540 104° East 503 579 37,000  Level FlightAware ADS-B
Sat 07:28:39 AM 48.0580 35.6780 104° East 503 579 37,000  Level FlightAware ADS-B
Sat 07:29:19 AM 48.0350 35.8120 104° East 503 579 37,000  Level FlightAware ADS-B
Sat 07:29:54 AM 48.0150 35.9330 104° East 505 581 37,000  Level FlightAware ADS-B
Sat 07:30:25 AM 47.9980 36.0340 104° East 504 580 37,000  Level FlightAware ADS-B
Sat 07:31:07 AM 47.9740 36.1740 104° East 502 578 37,000  Level FlightAware ADS-B
Sat 07:31:43 AM 47.9500 36.2950 106° East 501 577 37,000  Level FlightAware ADS-B
Sat 07:32:19 AM 47.9240 36.4150 108° East 504 580 37,000  Level FlightAware ADS-B
Sat 07:32:55 AM 47.9000 36.5300 107° East 502 578 37,000  Level FlightAware ADS-B
Sat 07:33:31 AM 47.8740 36.6500 108° East 500 575 37,000  Level FlightAware ADS-B
Sat 07:34:47 AM 47.8200 36.9000 108° East 498 573 37,000  Level FlightAware ADS-B
Sat 07:35:20 AM 47.7970 37.0050 108° East 497 572 37,000  Level FlightAware ADS-B
Sat 07:35:59 AM 47.7690 37.1310 108° East 497 572 37,000  Level FlightAware ADS-B
Sat 07:36:35 AM 47.7440 37.2490 107° East 497 572 37,000  Level FlightAware ADS-B
Sat 07:37:10 AM 47.7240 37.3650 104° East 496 571 37,000  Level FlightAware ADS-B
Sat 07:37:42 AM 47.7060 37.4710 104° East 495 570 37,000  Level FlightAware ADS-B
Sat 07:38:26 AM 47.6810 37.6140 105° East 494 568 37,000  Level FlightAware ADS-B
Sat 07:39:05 AM 47.6590 37.7390 105° East 494 568 37,000  Level FlightAware ADS-B
Sat 07:39:42 AM 47.6370 37.8580 105° East 492 566 37,000  Level FlightAware ADS-B
Sat 07:40:14 AM 47.6190 37.9600 105° East 491 565 37,000  Level FlightAware ADS-B
Sat 07:41:04 AM 47.5880 38.1300 105° East 492 566 37,000  Level FlightAware ADS-B
Sat 07:41:50 AM 47.5620 38.2760 105° East 495 570 37,000  Level FlightAware ADS-B
Sat 07:42:29 AM 47.5380 38.4030 106° East 492 566 37,000  Level FlightAware ADS-B
Sat 07:43:02 AM 47.5170 38.5070 107° East 492 566 37,000  Level FlightAware ADS-B
Sat 07:43:34 AM 47.4960 38.6120 106° East 492 566 37,000  Level FlightAware ADS-B
Sat 07:44:17 AM 47.4740 38.7250 106° East 492 566 37,000 80 Level FlightAware ADS-B
Sat 07:44:49 AM 47.4530 38.8310 106° East 492 566 37,100 385 Climbing FlightAware ADS-B
Sat 07:45:35 AM 47.4250 38.9700 107° East 488 562 37,500 488 Climbing FlightAware ADS-B
Sat 07:46:15 AM 47.3970 39.1070 107° East 492 566 37,800 525 Climbing FlightAware ADS-B
Sat 07:46:55 AM 47.3710 39.2380 106° East 498 573 38,200 541 Climbing FlightAware ADS-B
Sat 07:48:06 AM 47.3200 39.4840 107° East 489 563 38,800 511 Climbing FlightAware ADS-B
Sat 07:48:29 AM 47.3100 39.5330 107° East 486 559 39,000 286 Climbing FlightAware ADS-B
Sat 07:49:09 AM 47.2850 39.6580 106° East 491 565 39,100  Climbing FlightAware ADS-B
Sat 07:49:59 AM 47.2450 39.8460 107° East 489 563 39,000 -60 Descending FlightAware ADS-B
Sat 07:50:49 AM 47.2140 40.0050 106° East 489 563 39,000  Level FlightAware ADS-B
Sat 07:51:19 AM 47.1940 40.1030 107° East 488 562 39,000  Level FlightAware ADS-B
Sat 07:51:56 AM 47.1720 40.2150 106° East 489 563 39,000  Level FlightAware ADS-B
Sat 07:52:33 AM 47.1470 40.3370 107° East 489 563 39,000  Level FlightAware ADS-B
Sat 07:53:34 AM 47.1140 40.5000 107° East 487 560 39,000  Level FlightAware ADS-B
Sat 07:54:05 AM 47.0920 40.5990 108° East 486 559 39,000  Level FlightAware ADS-B
Sat 07:54:41 AM 47.0630 40.7330 108° East 485 558 39,000  Level FlightAware ADS-B
Sat 07:55:26 AM 47.0310 40.8780 108° East 484 557 39,000  Level FlightAware ADS-B
Sat 07:56:06 AM 47.0040 41.0030 108° East 484 557 39,000  Level FlightAware ADS-B
Sat 07:56:46 AM 46.9760 41.1310 108° East 484 557 39,000  Level FlightAware ADS-B
Sat 07:57:36 AM 46.9420 41.2850 108° East 484 557 39,000  Level FlightAware ADS-B
Sat 07:58:21 AM 46.9120 41.4190 108° East 488 562 39,000  Level FlightAware ADS-B
Sat 07:58:51 AM 46.8900 41.5160 108° East 489 563 39,000  Level FlightAware ADS-B
Sat 07:59:21 AM 46.8680 41.6140 108° East 491 565 39,000  Level FlightAware ADS-B
Sat 07:59:56 AM 46.8430 41.7220 109° East 489 563 39,000  Level FlightAware ADS-B
Sat 08:00:31 AM 46.8180 41.8330 108° East 490 564 39,000  Level FlightAware ADS-B
Sat 08:01:07 AM 46.7930 41.9430 108° East 491 565 39,000  Level FlightAware ADS-B
Sat 08:01:38 AM 46.7730 42.0310 108° East 492 566 39,000  Level FlightAware ADS-B
Sat 08:02:16 AM 46.7450 42.1500 109° East 492 566 39,000  Level FlightAware ADS-B
Sat 08:02:51 AM 46.7180 42.2700 108° East 492 566 39,000  Level FlightAware ADS-B
Sat 08:03:16 AM 46.7000 42.3490 108° East 492 566 39,000  Level FlightAware ADS-B
Sat 08:03:56 AM 46.6720 42.4690 109° East 492 566 39,000  Level FlightAware ADS-B
Sat 08:04:50 AM 46.6330 42.6250 110° East 494 568 39,000  Level FlightAware ADS-B
Sat 08:05:27 AM 46.6060 42.7400 109° East 494 568 39,000  Level FlightAware ADS-B
Sat 08:05:59 AM 46.5820 42.8390 109° East 495 570 39,000  Level FlightAware ADS-B
Sat 08:06:44 AM 46.5480 42.9820 109° East 494 568 39,000  Level FlightAware ADS-B
Sat 08:07:16 AM 46.5240 43.0790 110° East 492 566 39,000  Level FlightAware ADS-B
Sat 08:07:53 AM 46.4970 43.1940 109° East 490 564 39,000  Level FlightAware ADS-B
Sat 08:08:47 AM 46.4500 43.3830 110° East 490 564 39,000  Level FlightAware ADS-B
Sat 08:09:59 AM 46.3950 43.6090 109° East 497 572 39,000  Level FlightAware ADS-B
Sat 08:10:34 AM 46.3670 43.7180 110° East 499 574 39,000  Level FlightAware ADS-B
Sat 08:11:34 AM 46.3210 43.9030 110° East 496 571 39,000  Level FlightAware ADS-B
Sat 08:12:20 AM 46.2870 44.0390 110° East 495 570 39,000  Level FlightAware ADS-B
Sat 08:12:45 AM 46.2700 44.1050 110° East 495 570 39,000  Level FlightAware ADS-B
Sat 08:13:20 AM 46.2380 44.2330 110° East 495 570 39,000  Level FlightAware ADS-B
Sat 08:14:05 AM 46.2060 44.3570 110° East 498 573 39,000  Level FlightAware ADS-B
Sat 08:14:43 AM 46.1780 44.4680 110° East 497 572 39,000  Level FlightAware ADS-B
Sat 08:15:11 AM 46.1520 44.5660 111° Southeast 495 570 39,000  Level FlightAware ADS-B
Sat 08:15:55 AM 46.1150 44.7110 110° East 491 565 39,000  Level FlightAware ADS-B
Sat 08:16:20 AM 46.0970 44.7770 111° Southeast 491 565 39,000  Level FlightAware ADS-B
Sat 08:17:05 AM 46.0580 44.9260 111° Southeast 495 570 39,000  Level FlightAware ADS-B
Sat 08:17:51 AM 46.0220 45.0640 111° Southeast 493 567 39,000  Level FlightAware ADS-B
Sat 08:18:21 AM 45.9970 45.1590 111° Southeast 494 568 39,000  Level FlightAware ADS-B
Sat 08:19:01 AM 45.9640 45.2820 111° Southeast 495 570 39,000  Level FlightAware ADS-B
Sat 08:19:31 AM 45.9430 45.3610 111° Southeast 493 567 39,000  Level FlightAware ADS-B
Sat 08:20:01 AM 45.9170 45.4610 110° East 494 568 39,000  Level FlightAware ADS-B
Sat 08:20:53 AM 45.8740 45.6190 111° Southeast 496 571 39,000  Level FlightAware ADS-B
Sat 08:21:23 AM 45.8520 45.7020 111° Southeast 497 572 39,000  Level FlightAware ADS-B
Sat 08:21:59 AM 45.8270 45.7960 111° Southeast 497 572 39,000  Level FlightAware ADS-B
Sat 08:23:09 AM 45.7590 46.0400 112° Southeast 498 573 39,000  Level FlightAware ADS-B
Sat 08:23:39 AM 45.7340 46.1330 111° Southeast 497 572 39,000  Level FlightAware ADS-B
Sat 08:24:29 AM 45.6920 46.2850 112° Southeast 495 570 39,000  Level FlightAware ADS-B
Sat 08:25:06 AM 45.6610 46.3950 112° Southeast 495 570 39,000  Level FlightAware ADS-B
Sat 08:25:47 AM 45.6260 46.5220 111° Southeast 495 570 39,000  Level FlightAware ADS-B
Sat 08:27:02 AM 45.5630 46.7440 112° Southeast 491 565 39,000  Level FlightAware ADS-B
Sat 08:27:40 AM 45.5300 46.8630 112° Southeast 492 566 39,000  Level FlightAware ADS-B
Sat 08:28:04 AM 45.5110 46.9290 112° Southeast 492 566 39,000  Level FlightAware ADS-B
Sat 08:28:45 AM 45.4740 47.0570 112° Southeast 492 566 39,000  Level FlightAware ADS-B
Sat 08:29:33 AM 45.4340 47.1960 112° Southeast 492 566 39,000  Level FlightAware ADS-B
Sat 08:29:57 AM 45.4140 47.2660 112° Southeast 495 570 39,000  Level FlightAware ADS-B
Sat 08:30:40 AM 45.3750 47.4000 112° Southeast 496 571 39,000  Level FlightAware ADS-B
Sat 08:31:19 AM 45.3410 47.5200 112° Southeast 495 570 39,000  Level FlightAware ADS-B
Sat 08:31:51 AM 45.3120 47.6160 113° Southeast 495 570 39,000  Level FlightAware ADS-B
Sat 08:32:49 AM 45.2670 47.7730 112° Southeast 497 572 39,000  Level FlightAware ADS-B
Sat 08:33:16 AM 45.2380 47.8710 113° Southeast 497 572 39,000  Level FlightAware ADS-B
Sat 08:33:45 AM 45.2130 47.9520 114° Southeast 496 571 39,000  Level FlightAware ADS-B
Sat 08:34:23 AM 45.1780 48.0700 113° Southeast 495 570 39,000  Level FlightAware ADS-B
Sat 08:34:58 AM 45.1490 48.1690 113° Southeast 496 571 39,000  Level FlightAware ADS-B
Sat 08:35:34 AM 45.1150 48.2820 113° Southeast 497 572 39,000  Level FlightAware ADS-B
Sat 08:36:11 AM 45.0820 48.3900 113° Southeast 499 574 39,000  Level FlightAware ADS-B
Sat 08:36:47 AM 45.0500 48.4950 113° Southeast 500 575 39,000  Level FlightAware ADS-B
Sat 08:37:25 AM 45.0150 48.6130 113° Southeast 501 577 39,000  Level FlightAware ADS-B
Sat 08:38:01 AM 44.9810 48.7220 114° Southeast 501 577 39,000  Level FlightAware ADS-B
Sat 08:38:37 AM 44.9480 48.8300 113° Southeast 500 575 39,000  Level FlightAware ADS-B
Sat 08:39:04 AM 44.9240 48.9100 113° Southeast 499 574 39,000  Level FlightAware ADS-B
Sat 08:39:50 AM 44.8810 49.0480 114° Southeast 497 572 39,000  Level FlightAware ADS-B
Sat 08:40:23 AM 44.8510 49.1460 113° Southeast 497 572 39,000  Level FlightAware ADS-B
Sat 08:40:58 AM 44.8200 49.2460 114° Southeast 500 575 39,000  Level FlightAware ADS-B
Sat 08:41:43 AM 44.7780 49.3780 114° Southeast 498 573 39,000  Level FlightAware ADS-B
Sat 08:42:22 AM 44.7390 49.4890 116° Southeast 492 566 39,000  Level FlightAware ADS-B
Sat 08:43:06 AM 44.6800 49.6060 125° Southeast 491 565 39,000  Level FlightAware ADS-B
Sat 08:43:42 AM 44.6300 49.7020 126° Southeast 494 568 39,000  Level FlightAware ADS-B
Sat 08:44:15 AM 44.5860 49.7850 127° Southeast 493 567 39,000  Level FlightAware ADS-B
Sat 08:45:00 AM 44.5250 49.8990 127° Southeast 494 568 39,000  Level FlightAware ADS-B
Sat 08:45:40 AM 44.4780 49.9860 127° Southeast 494 568 39,000  Level FlightAware ADS-B
Sat 08:46:26 AM 44.4060 50.1170 128° Southeast 498 573 39,000  Level FlightAware ADS-B
Sat 08:47:03 AM 44.3550 50.2110 127° Southeast 497 572 39,000  Level FlightAware ADS-B
Sat 08:47:39 AM 44.3030 50.3050 128° Southeast 496 571 39,000  Level FlightAware ADS-B
Sat 08:48:14 AM 44.2530 50.3950 128° Southeast 497 572 39,000  Level FlightAware ADS-B
Sat 08:48:51 AM 44.2020 50.4880 127° Southeast 494 568 39,000  Level FlightAware ADS-B
Sat 08:49:38 AM 44.1370 50.6050 128° Southeast 494 568 39,000  Level FlightAware ADS-B
Sat 08:50:00 AM 44.1070 50.6590 128° Southeast 494 568 39,000  Level FlightAware ADS-B
Sat 08:50:37 AM 44.0560 50.7500 128° Southeast 492 566 39,000  Level FlightAware ADS-B
Sat 08:51:20 AM 43.9950 50.8590 128° Southeast 496 571 39,000  Level FlightAware ADS-B
Sat 08:51:50 AM 43.9530 50.9350 127° Southeast 496 571 39,000  Level FlightAware ADS-B
Sat 08:52:34 AM 43.9460 50.9470 129° Southeast 234 269 39,000  Level FlightAware ADS-B
Sat 08:53:00 AM 43.9170 50.9970 129° Southeast 496 571 39,000  Level FlightAware ADS-B
Sat 08:53:49 AM 43.8600 51.1030 127° Southeast 496 571 39,000  Level FlightAware ADS-B
Sat 08:54:35 AM 43.7790 51.2110 136° Southeast 495 570 39,000  Level FlightAware ADS-B
Sat 08:55:13 AM 43.7070 51.3140 134° Southeast 492 566 39,000  Level FlightAware ADS-B
Sat 08:55:52 AM 43.6520 51.3920 134° Southeast 492 566 39,000  Level FlightAware ADS-B
Sat 08:56:51 AM 43.5530 51.5290 135° Southeast 493 567 39,000  Level FlightAware ADS-B
Sat 08:57:35 AM 43.4740 51.6380 135° Southeast 495 570 39,000  Level FlightAware ADS-B
Sat 08:58:14 AM 43.4280 51.7010 135° Southeast 494 568 39,000  Level FlightAware ADS-B
Sat 08:58:52 AM 43.3720 51.7790 135° Southeast 495 570 39,000  Level FlightAware ADS-B
Sat 08:59:26 AM 43.3220 51.8480 135° Southeast 495 570 39,000  Level FlightAware ADS-B
Sat 09:00:05 AM 43.2270 51.9780 135° Southeast 494 568 39,000  Level FlightAware ADS-B
Sat 09:00:44 AM 43.1860 52.0330 136° Southeast 495 570 39,000  Level FlightAware ADS-B
Sat 09:01:13 AM 43.1370 52.1000 135° Southeast 495 570 39,000  Level FlightAware ADS-B
Sat 09:01:56 AM 43.0720 52.1880 135° Southeast 494 568 39,000  Level FlightAware ADS-B
Sat 09:02:27 AM 43.0050 52.2780 135° Southeast 495 570 39,000  Level FlightAware ADS-B
Sat 09:03:04 AM 42.9540 52.3470 135° Southeast 497 572 39,000  Level FlightAware ADS-B
Sat 09:03:52 AM 42.8730 52.4560 135° Southeast 498 573 39,000  Level FlightAware ADS-B
Sat 09:04:34 AM 42.8220 52.5240 136° Southeast 497 572 39,000  Level FlightAware ADS-B
Sat 09:05:38 AM 42.7330 52.6460 135° Southeast 497 572 39,000  Level FlightAware ADS-B
Sat 09:06:03 AM 42.6980 52.6930 135° Southeast 497 572 39,000  Level FlightAware ADS-B
Sat 09:07:03 AM 42.6150 52.8050 135° Southeast 497 572 39,000  Level FlightAware ADS-B
Sat 09:07:39 AM 42.5650 52.8730 135° Southeast 497 572 39,000  Level FlightAware ADS-B
Sat 09:08:15 AM 42.5160 52.9410 134° Southeast 497 572 39,000  Level FlightAware ADS-B
Sat 09:08:51 AM 42.4660 53.0080 135° Southeast 497 572 39,000  Level FlightAware ADS-B
Sat 09:09:27 AM 42.4160 53.0750 135° Southeast 497 572 39,000  Level FlightAware ADS-B
Sat 09:09:51 AM 42.3830 53.1200 135° Southeast 497 572 39,000  Level FlightAware ADS-B
Sat 09:10:38 AM 42.3180 53.2080 135° Southeast 497 572 39,000  Level FlightAware ADS-B
Sat 09:11:26 AM 42.2520 53.2980 135° Southeast 497 572 39,000  Level FlightAware ADS-B
Sat 09:12:18 AM 42.1800 53.3950 135° Southeast 497 572 39,000  Level FlightAware ADS-B
Sat 09:12:54 AM 42.1300 53.4620 135° Southeast 497 572 39,000  Level FlightAware ADS-B
Sat 09:13:20 AM 42.0940 53.5100 135° Southeast 497 572 39,000  Level FlightAware ADS-B
Sat 09:13:57 AM 42.0430 53.5790 135° Southeast 497 572 39,000  Level FlightAware ADS-B
Sat 09:14:46 AM 41.9750 53.6700 135° Southeast 497 572 39,000  Level FlightAware ADS-B
Sat 09:17:00 AM 41.8368 54.0173 118° Southeast  Level Estimated
Sat 09:18:00 AM 41.7746 54.1722 118° Southeast  Level Estimated
Sat 09:19:00 AM 41.7122 54.3270 118° Southeast  Level Estimated
Sat 09:20:00 AM 41.6496 54.4813 118° Southeast  Level Estimated
Sat 09:21:00 AM 41.5868 54.6354 119° Southeast  Level Estimated
Sat 09:22:00 AM 41.5237 54.7892 119° Southeast  Level Estimated
Sat 09:23:00 AM 41.4605 54.9427 119° Southeast  Level Estimated
Sat 09:24:00 AM 41.3970 55.0960 119° Southeast  Level Estimated
Sat 09:25:00 AM 41.3334 55.2489 119° Southeast  Level Estimated
Sat 09:26:00 AM 41.2696 55.4015 119° Southeast  Level Estimated
Sat 09:27:00 AM 41.2055 55.5537 119° Southeast  Level Estimated
Sat 09:28:00 AM 41.1413 55.7057 119° Southeast  Level Estimated
Sat 09:29:00 AM 41.0768 55.8574 119° Southeast  Level Estimated
Sat 09:30:00 AM 41.0121 56.0089 119° Southeast  Level Estimated
Sat 09:31:00 AM 40.9473 56.1600 120° Southeast  Level Estimated
Sat 09:32:00 AM 40.8823 56.3108 120° Southeast  Level Estimated
Sat 09:33:00 AM 40.8170 56.4613 120° Southeast  Level Estimated
Sat 09:34:00 AM 40.7516 56.6115 120° Southeast  Level Estimated
Sat 09:35:00 AM 40.6860 56.7614 120° Southeast  Level Estimated
Sat 09:36:00 AM 40.6202 56.9111 120° Southeast  Level Estimated
Sat 09:37:00 AM 40.5541 57.0604 120° Southeast  Level Estimated
Sat 09:38:00 AM 40.4879 57.2094 120° Southeast  Level Estimated
Sat 09:39:00 AM 40.4215 57.3582 120° Southeast  Level Estimated
Sat 09:40:00 AM 40.3549 57.5066 120° Southeast  Level Estimated
Sat 09:41:00 AM 40.2882 57.6548 121° Southeast  Level Estimated
Sat 09:42:00 AM 40.2212 57.8027 121° Southeast  Level Estimated
Sat 09:43:00 AM 40.1541 57.9502 121° Southeast  Level Estimated
Sat 09:44:00 AM 40.0867 58.0975 121° Southeast  Level Estimated
Sat 09:45:00 AM 40.0192 58.2445 121° Southeast  Level Estimated
Sat 09:46:00 AM 39.9515 58.3912 121° Southeast  Level Estimated
Sat 09:47:00 AM 39.8836 58.5376 121° Southeast  Level Estimated
Sat 09:48:00 AM 39.8155 58.6837 121° Southeast  Level Estimated
Sat 09:49:00 AM 39.7473 58.8296 121° Southeast  Level Estimated
Sat 09:50:00 AM 39.6788 58.9751 121° Southeast  Level Estimated
Sat 09:51:00 AM 39.6102 59.1203 121° Southeast  Level Estimated
Sat 09:52:00 AM 39.5414 59.2653 122° Southeast  Level Estimated
Sat 09:53:00 AM 39.4724 59.4100 122° Southeast  Level Estimated
Sat 09:54:00 AM 39.4033 59.5544 122° Southeast  Level Estimated
Sat 09:55:00 AM 39.3339 59.6985 122° Southeast  Level Estimated
Sat 09:56:00 AM 39.2644 59.8423 122° Southeast  Level Estimated
Sat 09:57:00 AM 39.1947 59.9858 122° Southeast  Level Estimated
Sat 09:58:00 AM 39.1248 60.1290 122° Southeast  Level Estimated
Sat 09:59:00 AM 39.0548 60.2720 122° Southeast  Level Estimated
Sat 10:00:00 AM 38.9846 60.4147 122° Southeast  Level Estimated
Sat 10:01:00 AM 38.9142 60.5571 122° Southeast  Level Estimated
Sat 10:02:00 AM 38.8436 60.6992 122° Southeast  Level Estimated
Sat 10:03:00 AM 38.7729 60.8410 123° Southeast  Level Estimated
Sat 10:04:00 AM 38.7020 60.9826 123° Southeast  Level Estimated
Sat 10:05:00 AM 38.6309 61.1238 123° Southeast  Level Estimated
Sat 10:06:00 AM 38.5596 61.2648 123° Southeast  Level Estimated
Sat 10:07:00 AM 38.4882 61.4055 123° Southeast  Level Estimated
Sat 10:08:00 AM 38.4166 61.5460 123° Southeast  Level Estimated
Sat 10:09:00 AM 38.3449 61.6861 123° Southeast  Level Estimated
Sat 10:10:00 AM 38.2729 61.8260 123° Southeast  Level Estimated
Sat 10:11:00 AM 38.2009 61.9656 123° Southeast  Level Estimated
Sat 10:12:00 AM 38.1286 62.1049 123° Southeast  Level Estimated
Sat 10:13:00 AM 38.0562 62.2439 123° Southeast  Level Estimated
Sat 10:14:00 AM 37.9836 62.3827 124° Southeast  Level Estimated
Sat 10:15:00 AM 37.9109 62.5212 124° Southeast  Level Estimated
Sat 10:16:00 AM 37.8380 62.6594 124° Southeast  Level Estimated
Sat 10:17:00 AM 37.7649 62.7974 124° Southeast  Level Estimated
Sat 10:18:00 AM 37.6917 62.9350 124° Southeast  Level Estimated
Sat 10:19:00 AM 37.6183 63.0724 124° Southeast  Level Estimated
Sat 10:20:00 AM 37.5448 63.2096 124° Southeast  Level Estimated
Sat 10:21:00 AM 37.4711 63.3464 124° Southeast  Level Estimated
Sat 10:22:00 AM 37.3972 63.4830 124° Southeast  Level Estimated
Sat 10:23:00 AM 37.3232 63.6193 124° Southeast  Level Estimated
Sat 10:24:00 AM 37.2490 63.7554 124° Southeast  Level Estimated
Sat 10:25:00 AM 37.1747 63.8912 124° Southeast  Level Estimated
Sat 10:26:00 AM 37.1002 64.0267 125° Southeast  Level Estimated
Sat 10:27:00 AM 37.0256 64.1619 125° Southeast  Level Estimated
Sat 10:28:00 AM 36.9508 64.2969 125° Southeast  Level Estimated
Sat 10:29:00 AM 36.8759 64.4316 125° Southeast  Level Estimated
Sat 10:30:00 AM 36.8008 64.5661 125° Southeast  Level Estimated
Sat 10:31:00 AM 36.7255 64.7003 125° Southeast  Level Estimated
Sat 10:32:00 AM 36.6501 64.8342 125° Southeast  Level Estimated
Sat 10:33:00 AM 36.5746 64.9679 125° Southeast  Level Estimated
Sat 10:34:00 AM 36.4989 65.1013 125° Southeast  Level Estimated
Sat 10:35:00 AM 36.4231 65.2344 125° Southeast  Level Estimated
Sat 10:36:00 AM 36.3471 65.3673 125° Southeast  Level Estimated
Sat 10:37:00 AM 36.2709 65.4999 125° Southeast  Level Estimated
Sat 10:38:00 AM 36.1946 65.6323 126° Southeast  Level Estimated
Sat 10:39:00 AM 36.1182 65.7644 126° Southeast  Level Estimated
Sat 10:40:00 AM 36.0416 65.8963 126° Southeast  Level Estimated
Sat 10:41:00 AM 35.9649 66.0278 126° Southeast  Level Estimated
Sat 10:42:00 AM 35.8881 66.1592 126° Southeast  Level Estimated
Sat 10:43:00 AM 35.8111 66.2903 126° Southeast  Level Estimated
Sat 10:44:00 AM 35.7339 66.4211 126° Southeast  Level Estimated
Sat 10:45:00 AM 35.6566 66.5517 126° Southeast  Level Estimated
Sat 10:46:00 AM 35.5792 66.6820 126° Southeast  Level Estimated
Sat 10:47:00 AM 35.5016 66.8121 126° Southeast  Level Estimated
Sat 10:48:00 AM 35.4239 66.9419 126° Southeast  Level Estimated
Sat 10:49:00 AM 35.3461 67.0715 126° Southeast  Level Estimated
Sat 10:50:00 AM 35.2681 67.2008 126° Southeast  Level Estimated
Sat 10:51:00 AM 35.1900 67.3298 126° Southeast  Level Estimated
Sat 10:52:00 AM 35.1117 67.4587 127° Southeast  Level Estimated
Sat 10:53:00 AM 35.0333 67.5872 127° Southeast  Level Estimated
Sat 10:54:00 AM 34.9548 67.7156 127° Southeast  Level Estimated
Sat 10:55:00 AM 34.8761 67.8437 127° Southeast  Level Estimated
Sat 10:56:00 AM 34.7974 67.9715 127° Southeast  Level Estimated
Sat 10:57:00 AM 34.7184 68.0991 127° Southeast  Level Estimated
Sat 10:58:00 AM 34.6394 68.2264 127° Southeast  Level Estimated
Sat 10:59:00 AM 34.5602 68.3536 127° Southeast  Level Estimated
Sat 11:00:00 AM 34.4808 68.4804 127° Southeast  Level Estimated
Sat 11:00:20 AM 32.7620 69.5930 127° Southeast 532 612 39,000  Level FlightAware ADS-B
Sat 11:01:00 AM 34.4014 68.6070 127° Southeast  Level Estimated
Sat 11:01:01 AM 32.7010 69.6850 128° Southeast 534 615 39,000  Level FlightAware ADS-B
Sat 11:01:40 AM 32.6400 69.7770 128° Southeast 537 618 39,000  Level FlightAware ADS-B
Sat 11:02:17 AM 32.5870 69.8570 128° Southeast 537 618 39,000  Level FlightAware ADS-B
Sat 11:03:13 AM 32.4980 69.9900 128° Southeast 531 611 39,000  Level FlightAware ADS-B
Sat 11:04:11 AM 32.4090 70.1250 128° Southeast 536 617 39,000  Level FlightAware ADS-B
Sat 11:04:51 AM 32.3490 70.2140 129° Southeast 533 613 39,000  Level FlightAware ADS-B
Sat 11:05:27 AM 32.2940 70.3000 127° Southeast 531 611 39,000  Level FlightAware ADS-B
Sat 11:06:07 AM 32.2350 70.3910 127° Southeast 532 612 39,000  Level FlightAware ADS-B
Sat 11:07:05 AM 32.1490 70.5230 128° Southeast 530 610 39,000  Level FlightAware ADS-B
Sat 11:08:22 AM 32.0330 70.7010 128° Southeast 531 611 39,000  Level FlightAware ADS-B
Sat 11:08:55 AM 31.9830 70.7780 127° Southeast 533 613 39,000  Level FlightAware ADS-B
Sat 11:09:29 AM 31.9320 70.8570 127° Southeast 532 612 39,000  Level FlightAware ADS-B
Sat 11:10:01 AM 31.8900 70.9350 122° Southeast 530 610 39,000  Level FlightAware ADS-B
Sat 11:10:40 AM 31.8460 71.0320 118° Southeast 527 606 39,000  Level FlightAware ADS-B
Sat 11:11:40 AM 31.7840 71.1730 117° Southeast 526 605 39,000  Level FlightAware ADS-B
Sat 11:12:25 AM 31.7290 71.2930 118° Southeast 528 608 39,000  Level FlightAware ADS-B
Sat 11:13:01 AM 31.6870 71.3860 118° Southeast 532 612 39,000  Level FlightAware ADS-B
Sat 11:13:37 AM 31.6450 71.4770 118° Southeast 532 612 39,000  Level FlightAware ADS-B
Sat 11:14:14 AM 31.6020 71.5720 118° Southeast 530 610 39,000  Level FlightAware ADS-B
Sat 11:14:51 AM 31.5600 71.6650 118° Southeast 527 606 39,000  Level FlightAware ADS-B
Sat 11:15:25 AM 31.5200 71.7520 118° Southeast 526 605 39,000  Level FlightAware ADS-B
Sat 11:16:13 AM 31.4640 71.8730 118° Southeast 525 604 39,000  Level FlightAware ADS-B
Sat 11:17:15 AM 31.3930 72.0280 118° Southeast 527 606 39,000  Level FlightAware ADS-B
Sat 11:18:17 AM 31.3310 72.1910 114° Southeast 525 604 39,000  Level FlightAware ADS-B
Sat 11:18:47 AM 31.3120 72.2740 105° East 524 603 39,000  Level FlightAware ADS-B
Sat 11:19:21 AM 31.3000 72.3610 99° East 525 604 39,000  Level FlightAware ADS-B
Sat 11:19:57 AM 31.2950 72.4710 93° East 523 602 39,000  Level FlightAware ADS-B
Sat 11:21:05 AM 31.3100 72.6570 85° East 517 595 39,000  Level FlightAware ADS-B
Sat 11:21:43 AM 31.3220 72.7620 82° East 515 593 39,000  Level FlightAware ADS-B
Sat 11:22:26 AM 31.3350 72.8710 82° East 512 589 39,000  Level FlightAware ADS-B
Sat 11:23:09 AM 31.3500 72.9980 82° East 511 588 39,000  Level FlightAware ADS-B
Sat 11:23:52 AM 31.3610 73.1110 83° East 513 590 39,000  Level FlightAware ADS-B
Sat 11:24:28 AM 31.3690 73.2150 85° East 510 587 39,000  Level FlightAware ADS-B
Sat 11:25:01 AM 31.3770 73.3060 84° East 510 587 39,000  Level FlightAware ADS-B
Sat 11:25:33 AM 31.3840 73.3920 85° East 510 587 39,000  Level FlightAware ADS-B
Sat 11:26:38 AM 31.4000 73.5730 84° East 508 585 39,000  Level FlightAware ADS-B
Sat 11:27:19 AM 31.4090 73.6830 84° East 508 585 39,000  Level FlightAware ADS-B
Sat 11:28:03 AM 31.4210 73.8040 83° East 502 578 39,000  Level FlightAware ADS-B
Sat 11:28:41 AM 31.4340 73.9070 82° East 507 583 39,000  Level FlightAware ADS-B
Sat 11:29:17 AM 31.4370 74.0050 88° East 511 588 39,000  Level FlightAware ADS-B
Sat 11:29:53 AM 31.4290 74.1050 95° East 513 590 39,000  Level FlightAware ADS-B
Sat 11:31:04 AM 31.3930 74.2970 102° East 515 593 39,000  Level FlightAware ADS-B
Sat 11:31:35 AM 31.3750 74.3830 104° East 514 592 39,000  Level FlightAware ADS-B
Sat 11:32:07 AM 31.3480 74.4660 111° Southeast 516 594 39,000  Level FlightAware ADS-B
Sat 11:33:05 AM 31.2820 74.6070 119° Southeast 513 590 39,000  Level FlightAware ADS-B
Sat 11:33:46 AM 31.2230 74.6940 128° Southeast 512 589 39,000  Level FlightAware ADS-B
Sat 11:34:17 AM 31.1710 74.7550 135° Southeast 510 587 39,000  Level FlightAware ADS-B
Sat 11:34:51 AM 31.1130 74.8210 136° Southeast 511 588 39,000  Level FlightAware ADS-B
Sat 11:35:48 AM 31.0150 74.9290 137° Southeast 512 589 39,000  Level FlightAware ADS-B
Sat 11:36:15 AM 30.9680 74.9800 137° Southeast 511 588 39,000  Level FlightAware ADS-B
Sat 11:36:47 AM 30.9130 75.0400 137° Southeast 511 588 39,000  Level FlightAware ADS-B
Sat 11:37:54 AM 30.7850 75.1440 145° Southeast 503 579 39,000  Level FlightAware ADS-B
Sat 11:38:21 AM 30.7280 75.1770 154° Southeast 501 577 39,000  Level FlightAware ADS-B
Sat 11:38:50 AM 30.6670 75.2050 158° South 498 573 39,000  Level FlightAware ADS-B
Sat 11:39:23 AM 30.5940 75.2330 162° South 496 571 39,000  Level FlightAware ADS-B
Sat 11:39:54 AM 30.5270 75.2600 161° South 495 570 39,000  Level FlightAware ADS-B
Sat 11:40:32 AM 30.4450 75.2910 162° South 496 571 39,000  Level FlightAware ADS-B
Sat 11:41:13 AM 30.3530 75.3250 162° South 500 575 39,000  Level FlightAware ADS-B
Sat 11:41:45 AM 30.2820 75.3510 162° South 500 575 39,000  Level FlightAware ADS-B
Sat 11:42:13 AM 30.2220 75.3730 162° South 499 574 39,000  Level FlightAware ADS-B
Sat 11:42:45 AM 30.1490 75.3990 163° South 500 575 39,000  Level FlightAware ADS-B
Sat 11:43:45 AM 30.0180 75.4470 162° South 503 579 39,000  Level FlightAware ADS-B
Sat 11:44:18 AM 29.9460 75.4790 159° South 509 586 39,000  Level FlightAware ADS-B
Sat 11:45:26 AM 29.8100 75.5770 148° Southeast 515 593 39,000  Level FlightAware ADS-B
Sat 11:45:54 AM 29.7610 75.6310 136° Southeast 515 593 39,000  Level FlightAware ADS-B
Sat 11:46:34 AM 29.6920 75.7070 136° Southeast 516 594 39,000  Level FlightAware ADS-B
Sat 11:47:15 AM 29.6220 75.7830 137° Southeast 516 594 39,000  Level FlightAware ADS-B
Sat 11:48:15 AM 29.5180 75.8960 137° Southeast 514 592 39,000  Level FlightAware ADS-B
Sat 11:49:14 AM 29.4140 76.0090 137° Southeast 516 594 39,000  Level FlightAware ADS-B
Sat 11:50:22 AM 29.2970 76.1360 137° Southeast 516 594 39,000  Level FlightAware ADS-B
Sat 11:51:03 AM 29.2280 76.2100 137° Southeast 515 593 39,000  Level FlightAware ADS-B
Sat 11:52:06 AM 29.1170 76.3300 137° Southeast 515 593 39,000  Level FlightAware ADS-B
Sat 11:52:50 AM 29.0410 76.4120 137° Southeast 512 589 39,000  Level FlightAware ADS-B
Sat 11:53:26 AM 28.9780 76.4790 137° Southeast 511 588 39,000  Level FlightAware ADS-B
Sat 11:53:54 AM 28.9300 76.5310 137° Southeast 509 586 39,000  Level FlightAware ADS-B
Sat 11:54:35 AM 28.8610 76.6040 137° Southeast 507 583 39,000  Level FlightAware ADS-B
Sat 11:55:09 AM 28.8020 76.6670 137° Southeast 510 587 39,000  Level FlightAware ADS-B
Sat 11:55:42 AM 28.7440 76.7300 136° Southeast 512 589 39,000  Level FlightAware ADS-B
Sat 11:56:19 AM 28.6820 76.7960 137° Southeast 512 589 39,000  Level FlightAware ADS-B
Sat 11:56:55 AM 28.6190 76.8620 137° Southeast 512 589 39,000  Level FlightAware ADS-B
Sat 11:57:50 AM 28.5230 76.9640 137° Southeast 512 589 39,000  Level FlightAware ADS-B
Sat 11:58:14 AM 28.4810 77.0080 137° Southeast 512 589 39,000  Level FlightAware ADS-B
Sat 11:58:59 AM 28.4030 77.0900 137° Southeast 515 593 39,000  Level FlightAware ADS-B
Sat 11:59:29 AM 28.3510 77.1450 137° Southeast 515 593 39,000  Level FlightAware ADS-B
Sat 12:00:29 PM 28.2460 77.2560 137° Southeast 514 592 39,000  Level FlightAware ADS-B
Sat 12:01:27 PM 28.1450 77.3620 137° Southeast 514 592 39,000  Level FlightAware ADS-B
Sat 12:02:27 PM 28.0400 77.4720 137° Southeast 515 593 39,000  Level FlightAware ADS-B
Sat 12:02:59 PM 27.9850 77.5290 138° Southeast 515 593 39,000  Level FlightAware ADS-B
Sat 12:04:01 PM 27.8760 77.6430 137° Southeast 514 592 39,000  Level FlightAware ADS-B
Sat 12:05:01 PM 27.7700 77.7520 138° Southeast 513 590 39,000  Level FlightAware ADS-B
Sat 12:06:11 PM 27.6380 77.8600 144° Southeast 509 586 39,000  Level FlightAware ADS-B
Sat 12:06:47 PM 27.5680 77.9140 146° Southeast 508 585 39,000  Level FlightAware ADS-B
Sat 12:07:23 PM 27.4960 77.9680 146° Southeast 509 586 39,000  Level FlightAware ADS-B
Sat 12:08:07 PM 27.4100 78.0320 147° Southeast 505 581 39,000  Level FlightAware ADS-B
Sat 12:08:35 PM 27.3570 78.0720 146° Southeast 497 572 39,000  Level FlightAware ADS-B
Sat 12:09:11 PM 27.2880 78.1230 147° Southeast 491 565 39,000  Level FlightAware ADS-B
Sat 12:09:43 PM 27.2280 78.1670 147° Southeast 493 567 39,000  Level FlightAware ADS-B
Sat 12:10:23 PM 27.1520 78.2230 147° Southeast 495 570 39,000  Level FlightAware ADS-B
Sat 12:11:05 PM 27.0710 78.2830 147° Southeast 498 573 39,000  Level FlightAware ADS-B
Sat 12:12:11 PM 26.9470 78.3740 147° Southeast 496 571 39,000  Level FlightAware ADS-B
Sat 12:12:46 PM 26.8770 78.4250 147° Southeast 494 568 39,000  Level FlightAware ADS-B
Sat 12:13:23 PM 26.8050 78.4780 147° Southeast 491 565 39,000  Level FlightAware ADS-B
Sat 12:13:55 PM 26.7450 78.5220 147° Southeast 494 568 39,000  Level FlightAware ADS-B
Sat 12:14:26 PM 26.6880 78.5630 147° Southeast 497 572 39,000  Level FlightAware ADS-B
Sat 12:15:30 PM 26.5590 78.6570 147° Southeast 499 574 39,000  Level FlightAware ADS-B
Sat 12:15:52 PM 26.5170 78.6880 147° Southeast 500 575 39,000  Level FlightAware ADS-B
Sat 12:16:36 PM 26.4320 78.7500 147° Southeast 501 577 39,000  Level FlightAware ADS-B
Sat 12:17:12 PM 26.3630 78.8000 147° Southeast 505 581 39,000  Level FlightAware ADS-B
Sat 12:17:48 PM 26.2900 78.8530 147° Southeast 507 583 39,000  Level FlightAware ADS-B
Sat 12:18:08 PM 26.2500 78.8820 147° Southeast 505 581 39,000  Level FlightAware ADS-B
Sat 12:18:54 PM 26.1620 78.9450 147° Southeast 496 571 39,000  Level FlightAware ADS-B
Sat 12:19:21 PM 26.1180 78.9780 146° Southeast 496 571 39,000  Level FlightAware ADS-B
Sat 12:19:57 PM 26.0600 79.0220 146° Southeast 496 571 39,000  Level FlightAware ADS-B
Sat 12:20:57 PM 25.9630 79.0950 146° Southeast 496 571 39,000  Level FlightAware ADS-B
Sat 12:22:05 PM 25.8230 79.2480 135° Southeast 512 589 39,000  Level FlightAware ADS-B
Sat 12:22:42 PM 25.7710 79.3070 134° Southeast 512 589 39,000  Level FlightAware ADS-B
Sat 12:23:18 PM 25.7190 79.3640 135° Southeast 512 589 39,000  Level FlightAware ADS-B
Sat 12:23:42 PM 25.6850 79.4010 136° Southeast 512 589 39,000  Level FlightAware ADS-B
Sat 12:24:18 PM 25.6340 79.4580 135° Southeast 512 589 39,000  Level FlightAware ADS-B
Sat 12:25:06 PM 25.5660 79.5340 135° Southeast 512 589 39,000  Level FlightAware ADS-B
Sat 12:26:02 PM 25.4240 79.6840 136° Southeast 511 588 39,000  Level FlightAware ADS-B
Sat 12:26:38 PM 25.3730 79.7410 135° Southeast 511 588 39,000  Level FlightAware ADS-B
Sat 12:27:02 PM 25.3390 79.7780 135° Southeast 511 588 39,000  Level FlightAware ADS-B
Sat 12:27:38 PM 25.2870 79.8350 135° Southeast 511 588 39,000  Level FlightAware ADS-B
Sat 12:28:14 PM 25.2360 79.8920 135° Southeast 511 588 39,000  Level FlightAware ADS-B
Sat 12:28:55 PM 25.1240 80.0070 137° Southeast 515 593 39,000  Level FlightAware ADS-B
Sat 12:29:47 PM 25.0490 80.0890 135° Southeast 515 593 39,000  Level FlightAware ADS-B
Sat 12:30:24 PM 24.9960 80.1480 135° Southeast 515 593 39,000  Level FlightAware ADS-B
Sat 12:31:00 PM 24.9450 80.2040 135° Southeast 515 593 39,000  Level FlightAware ADS-B
Sat 12:31:36 PM 24.8930 80.2610 135° Southeast 515 593 39,000  Level FlightAware ADS-B
Sat 12:32:12 PM 24.8410 80.3180 135° Southeast 515 593 39,000  Level FlightAware ADS-B
Sat 12:32:48 PM 24.7900 80.3750 135° Southeast 515 593 39,000  Level FlightAware ADS-B
Sat 12:33:48 PM 24.7040 80.4690 135° Southeast 515 593 39,000  Level FlightAware ADS-B
Sat 12:34:38 PM 24.6320 80.5480 135° Southeast 515 593 39,000  Level FlightAware ADS-B
Sat 12:35:38 PM 24.5460 80.6430 135° Southeast 515 593 39,000  Level FlightAware ADS-B
Sat 12:36:02 PM 24.5120 80.6810 135° Southeast 515 593 39,000  Level FlightAware ADS-B
Sat 12:36:38 PM 24.4600 80.7370 136° Southeast 515 593 39,000  Level FlightAware ADS-B
Sat 12:37:38 PM 24.3740 80.8320 135° Southeast 515 593 39,000  Level FlightAware ADS-B
Sat 12:38:38 PM 24.2890 80.9260 135° Southeast 515 593 39,000 203 Level FlightAware ADS-B
Sat 12:41:00 PM 24.0796 81.1774 132° Southeast  Level Estimated
Sat 12:42:00 PM 23.9911 81.2834 132° Southeast  Level Estimated
Sat 12:43:00 PM 23.9024 81.3893 132° Southeast  Level Estimated
Sat 12:44:00 PM 23.8137 81.4950 133° Southeast  Level Estimated
Sat 12:45:00 PM 23.7249 81.6005 133° Southeast  Level Estimated
Sat 12:46:00 PM 23.6360 81.7060 133° Southeast  Level Estimated
Sat 12:47:00 PM 23.5470 81.8112 133° Southeast  Level Estimated
Sat 12:47:30 PM 23.2640 81.9630 133° Southeast 488 562 41,000  Level FlightAware ADS-B
Sat 12:48:20 PM 23.1920 82.0380 136° Southeast 488 562 41,000  Level FlightAware ADS-B
Sat 12:49:21 PM 23.1080 82.1260 136° Southeast 488 562 41,000  Level FlightAware ADS-B
Sat 12:50:00 PM 23.0240 82.2210 134° Southeast 495 570 41,000  Level FlightAware ADS-B
Sat 12:51:04 PM 22.9310 82.3440 129° Southeast 498 573 41,000  Level FlightAware ADS-B
Sat 12:51:40 PM 22.8790 82.4140 129° Southeast 499 574 41,000  Level FlightAware ADS-B
Sat 12:52:37 PM 22.8070 82.5090 129° Southeast 498 573 41,000  Level FlightAware ADS-B
Sat 12:53:32 PM 22.7170 82.6280 129° Southeast 496 571 41,000  Level FlightAware ADS-B
Sat 12:54:29 PM 22.6400 82.7290 130° Southeast 495 570 41,000  Level FlightAware ADS-B
Sat 12:55:29 PM 22.5660 82.8280 129° Southeast 495 570 41,000  Level FlightAware ADS-B
Sat 12:56:17 PM 22.5070 82.9060 129° Southeast 495 570 41,000  Level FlightAware ADS-B
Sat 12:56:52 PM 22.4230 83.0120 131° Southeast 497 572 41,000  Level FlightAware ADS-B
Sat 12:57:16 PM 22.3880 83.0570 130° Southeast 499 574 41,000  Level FlightAware ADS-B
Sat 12:58:04 PM 22.3160 83.1520 129° Southeast 500 575 41,000  Level FlightAware ADS-B
Sat 12:59:12 PM 22.2170 83.2810 130° Southeast 497 572 41,000  Level FlightAware ADS-B
Sat 01:00:20 PM 22.1170 83.4100 130° Southeast 491 565 41,000  Level FlightAware ADS-B
Sat 01:00:51 PM 22.0730 83.4690 129° Southeast 489 563 41,000  Level FlightAware ADS-B
Sat 01:01:24 PM 22.0250 83.5310 130° Southeast 487 560 41,000  Level FlightAware ADS-B
Sat 01:01:52 PM 21.9850 83.5840 129° Southeast 488 562 41,000  Level FlightAware ADS-B
Sat 01:02:28 PM 21.9340 83.6500 130° Southeast 485 558 41,000  Level FlightAware ADS-B
Sat 01:03:00 PM 21.8880 83.7110 129° Southeast 484 557 41,000  Level FlightAware ADS-B
Sat 01:03:31 PM 21.8440 83.7670 130° Southeast 488 562 41,000  Level FlightAware ADS-B
Sat 01:04:11 PM 21.7870 83.8420 129° Southeast 486 559 41,000  Level FlightAware ADS-B
Sat 01:05:08 PM 21.7050 83.9480 130° Southeast 480 552 41,000  Level FlightAware ADS-B
Sat 01:06:20 PM 21.6030 84.0800 130° Southeast 481 554 41,000  Level FlightAware ADS-B
Sat 01:06:55 PM 21.5530 84.1450 130° Southeast 481 554 41,000  Level FlightAware ADS-B
Sat 01:07:31 PM 21.5020 84.2110 130° Southeast 482 555 41,000  Level FlightAware ADS-B
Sat 01:07:59 PM 21.4620 84.2630 130° Southeast 482 555 41,000  Level FlightAware ADS-B
Sat 01:08:58 PM 21.3780 84.3710 130° Southeast 484 557 41,000  Level FlightAware ADS-B
Sat 01:09:39 PM 21.3180 84.4480 130° Southeast 487 560 41,000  Level FlightAware ADS-B
Sat 01:10:31 PM 21.2430 84.5440 130° Southeast 485 558 41,000  Level FlightAware ADS-B
Sat 01:11:33 PM 21.1550 84.6580 130° Southeast 485 558 41,000  Level FlightAware ADS-B
Sat 01:12:11 PM 21.1000 84.7280 130° Southeast 485 558 41,000  Level FlightAware ADS-B
Sat 01:12:35 PM 21.0670 84.7710 129° Southeast 487 560 41,000  Level FlightAware ADS-B
Sat 01:13:09 PM 21.0170 84.8340 130° Southeast 489 563 41,000  Level FlightAware ADS-B
Sat 01:14:03 PM 20.9520 84.9190 129° Southeast 489 563 41,000  Level FlightAware ADS-B
Sat 01:14:39 PM 20.9090 84.9770 128° Southeast 489 563 41,000  Level FlightAware ADS-B
Sat 01:15:39 PM 20.8360 85.0730 129° Southeast 489 563 41,000  Level FlightAware ADS-B
Sat 01:16:15 PM 20.7930 85.1300 129° Southeast 489 563 41,000  Level FlightAware ADS-B
Sat 01:16:51 PM 20.7490 85.1880 129° Southeast 489 563 41,000  Level FlightAware ADS-B
Sat 01:17:27 PM 20.7050 85.2460 129° Southeast 489 563 41,000  Level FlightAware ADS-B
Sat 01:18:28 PM 20.6320 85.3430 129° Southeast 489 563 41,000  Level FlightAware ADS-B
Sat 01:19:28 PM 20.5590 85.4390 129° Southeast 489 563 41,000  Level FlightAware ADS-B
Sat 01:20:04 PM 20.5150 85.4960 129° Southeast 489 563 41,000  Level FlightAware ADS-B
Sat 01:21:04 PM 20.4430 85.5920 129° Southeast 489 563 41,000  Level FlightAware ADS-B
Sat 01:22:42 PM 20.2000 85.8660 133° Southeast 480 552 41,000  Level FlightAware ADS-B
Sat 01:23:19 PM 20.1540 85.9220 131° Southeast 480 552 41,000  Level FlightAware ADS-B
Sat 01:23:55 PM 20.1100 85.9760 131° Southeast 480 552 41,000  Level FlightAware ADS-B
Sat 01:24:43 PM 20.0500 86.0490 131° Southeast 480 552 41,000  Level FlightAware ADS-B
Sat 01:25:31 PM 19.9910 86.1220 131° Southeast 480 552 41,000  Level FlightAware ADS-B
Sat 01:26:07 PM 19.9460 86.1760 132° Southeast 480 552 41,000  Level FlightAware ADS-B
Sat 01:26:55 PM 19.8870 86.2490 131° Southeast 480 552 41,000  Level FlightAware ADS-B
Sat 01:27:31 PM 19.8420 86.3040 131° Southeast 480 552 41,000  Level FlightAware ADS-B
Sat 01:28:31 PM 19.7680 86.3950 131° Southeast 480 552 41,000  Level FlightAware ADS-B
Sat 01:30:07 PM 19.5050 86.5850 146° Southeast 470 541 41,000  Level FlightAware ADS-B
Sat 01:30:43 PM 19.4590 86.6350 134° Southeast 470 541 41,000  Level FlightAware ADS-B
Sat 01:31:20 PM 19.4110 86.6880 134° Southeast 470 541 41,000  Level FlightAware ADS-B
Sat 01:32:21 PM 19.3330 86.7740 134° Southeast 470 541 41,000  Level FlightAware ADS-B
Sat 01:33:22 PM 19.2550 86.8600 134° Southeast 470 541 41,000  Level FlightAware ADS-B
Sat 01:34:10 PM 19.1930 86.9270 134° Southeast 470 541 41,000  Level FlightAware ADS-B
Sat 01:35:11 PM 19.1150 87.0130 134° Southeast 470 541 41,000  Level FlightAware ADS-B
Sat 01:36:11 PM 19.0380 87.0970 134° Southeast 470 541 41,000  Level FlightAware ADS-B
Sat 01:36:36 PM 19.0060 87.1330 133° Southeast 470 541 41,000  Level FlightAware ADS-B
Sat 01:37:12 PM 18.9590 87.1830 135° Southeast 470 541 41,000  Level FlightAware ADS-B
Sat 01:38:12 PM 18.8820 87.2670 134° Southeast 470 541 41,000  Level FlightAware ADS-B
Sat 01:38:48 PM 18.8360 87.3180 134° Southeast 470 541 41,000  Level FlightAware ADS-B
Sat 01:41:00 PM 18.6317 87.5334 135° Southeast  Level Estimated
Sat 01:42:00 PM 18.5388 87.6311 135° Southeast  Level Estimated
Sat 01:43:00 PM 18.4458 87.7288 135° Southeast  Level Estimated
Sat 01:44:00 PM 18.3528 87.8263 135° Southeast  Level Estimated
Sat 01:45:00 PM 18.2597 87.9237 135° Southeast  Level Estimated
Sat 01:46:00 PM 18.1666 88.0210 135° Southeast  Level Estimated
Sat 01:47:00 PM 18.0734 88.1182 135° Southeast  Level Estimated
Sat 01:48:00 PM 17.9802 88.2154 135° Southeast  Level Estimated
Sat 01:49:00 PM 17.8869 88.3124 135° Southeast  Level Estimated
Sat 01:50:00 PM 17.7936 88.4093 135° Southeast  Level Estimated
Sat 01:51:00 PM 17.7002 88.5061 135° Southeast  Level Estimated
Sat 01:52:00 PM 17.6068 88.6028 135° Southeast  Level Estimated
Sat 01:53:00 PM 17.5133 88.6994 135° Southeast  Level Estimated
Sat 01:54:00 PM 17.4198 88.7959 135° Southeast  Level Estimated
Sat 01:55:00 PM 17.3262 88.8923 135° Southeast  Level Estimated
Sat 01:56:00 PM 17.2326 88.9886 135° Southeast  Level Estimated
Sat 01:57:00 PM 17.1390 89.0848 136° Southeast  Level Estimated
Sat 01:58:00 PM 17.0453 89.1809 136° Southeast  Level Estimated
Sat 01:59:00 PM 16.9515 89.2769 136° Southeast  Level Estimated
Sat 02:00:00 PM 16.8578 89.3729 136° Southeast  Level Estimated
Sat 02:01:00 PM 16.7639 89.4687 136° Southeast  Level Estimated
Sat 02:02:00 PM 16.6701 89.5644 136° Southeast  Level Estimated
Sat 02:03:00 PM 16.5761 89.6601 136° Southeast  Level Estimated
Sat 02:04:00 PM 16.4822 89.7556 136° Southeast  Level Estimated
Sat 02:05:00 PM 16.3882 89.8511 136° Southeast  Level Estimated
Sat 02:06:00 PM 16.2941 89.9464 136° Southeast  Level Estimated
Sat 02:07:00 PM 16.2000 90.0417 136° Southeast  Level Estimated
Sat 02:08:00 PM 16.1059 90.1369 136° Southeast  Level Estimated
Sat 02:09:00 PM 16.0117 90.2319 136° Southeast  Level Estimated
Sat 02:10:00 PM 15.9175 90.3270 136° Southeast  Level Estimated
Sat 02:11:00 PM 15.8232 90.4219 136° Southeast  Level Estimated
Sat 02:12:00 PM 15.7289 90.5167 136° Southeast  Level Estimated
Sat 02:13:00 PM 15.6346 90.6114 136° Southeast  Level Estimated
Sat 02:14:00 PM 15.5402 90.7060 136° Southeast  Level Estimated
Sat 02:15:00 PM 15.4458 90.8006 136° Southeast  Level Estimated
Sat 02:16:00 PM 15.3513 90.8951 136° Southeast  Level Estimated
Sat 02:17:00 PM 15.2569 90.9895 136° Southeast  Level Estimated
Sat 02:18:00 PM 15.1623 91.0838 136° Southeast  Level Estimated
Sat 02:19:00 PM 15.0677 91.1780 136° Southeast  Level Estimated
Sat 02:20:00 PM 14.9731 91.2721 136° Southeast  Level Estimated
Sat 02:21:00 PM 14.8785 91.3662 136° Southeast  Level Estimated
Sat 02:22:00 PM 14.7837 91.4601 136° Southeast  Level Estimated
Sat 02:23:00 PM 14.6890 91.5540 136° Southeast  Level Estimated
Sat 02:24:00 PM 14.5942 91.6478 136° Southeast  Level Estimated
Sat 02:25:00 PM 14.4994 91.7415 136° Southeast  Level Estimated
Sat 02:26:00 PM 14.4046 91.8352 136° Southeast  Level Estimated
Sat 02:27:00 PM 14.3097 91.9287 136° Southeast  Level Estimated
Sat 02:28:00 PM 14.2148 92.0222 136° Southeast  Level Estimated
Sat 02:29:00 PM 14.1198 92.1156 136° Southeast  Level Estimated
Sat 02:30:00 PM 14.0248 92.2090 136° Southeast  Level Estimated
Sat 02:31:00 PM 13.9298 92.3022 136° Southeast  Level Estimated
Sat 02:32:00 PM 13.8348 92.3954 136° Southeast  Level Estimated
Sat 02:33:00 PM 13.7396 92.4885 136° Southeast  Level Estimated
Sat 02:34:00 PM 13.6445 92.5815 136° Southeast  Level Estimated
Sat 02:35:00 PM 13.5493 92.6745 136° Southeast  Level Estimated
Sat 02:36:00 PM 13.4542 92.7673 137° Southeast  Level Estimated
Sat 02:37:00 PM 13.3589 92.8601 137° Southeast  Level Estimated
Sat 02:38:00 PM 13.2636 92.9529 137° Southeast  Level Estimated
Sat 02:39:00 PM 13.1683 93.0455 137° Southeast  Level Estimated
Sat 02:40:00 PM 13.0730 93.1381 137° Southeast  Level Estimated
Sat 02:41:00 PM 12.9776 93.2306 137° Southeast  Level Estimated
Sat 02:42:00 PM 12.8822 93.3230 137° Southeast  Level Estimated
Sat 02:43:00 PM 12.7868 93.4154 137° Southeast  Level Estimated
Sat 02:44:00 PM 12.6913 93.5077 137° Southeast  Level Estimated
Sat 02:45:00 PM 12.5958 93.5999 137° Southeast  Level Estimated
Sat 02:46:00 PM 12.5003 93.6921 137° Southeast  Level Estimated
Sat 02:47:00 PM 12.4047 93.7842 137° Southeast  Level Estimated
Sat 02:48:00 PM 12.3091 93.8762 137° Southeast  Level Estimated
Sat 02:49:00 PM 12.2135 93.9682 137° Southeast  Level Estimated
Sat 02:50:00 PM 12.1179 94.0601 137° Southeast  Level Estimated
Sat 02:51:00 PM 12.0222 94.1519 137° Southeast  Level Estimated
Sat 02:52:00 PM 11.9265 94.2437 137° Southeast  Level Estimated
Sat 02:53:00 PM 11.8308 94.3354 137° Southeast  Level Estimated
Sat 02:54:00 PM 11.7350 94.4270 137° Southeast  Level Estimated
Sat 02:55:00 PM 11.6392 94.5186 137° Southeast  Level Estimated
Sat 02:56:00 PM 11.5434 94.6101 137° Southeast  Level Estimated
Sat 02:57:00 PM 11.4475 94.7015 137° Southeast  Level Estimated
Sat 02:58:00 PM 11.3516 94.7929 137° Southeast  Level Estimated
Sat 02:59:00 PM 11.2557 94.8842 137° Southeast  Level Estimated
Sat 03:00:00 PM 11.1597 94.9755 137° Southeast  Level Estimated
Sat 03:01:00 PM 11.0638 95.0667 137° Southeast  Level Estimated
Sat 03:02:00 PM 10.9678 95.1578 137° Southeast  Level Estimated
Sat 03:03:00 PM 10.8717 95.2489 137° Southeast  Level Estimated
Sat 03:04:00 PM 10.7757 95.3399 137° Southeast  Level Estimated
Sat 03:05:00 PM 10.6796 95.4309 137° Southeast  Level Estimated
Sat 03:06:00 PM 10.5835 95.5218 137° Southeast  Level Estimated
Sat 03:07:00 PM 10.4874 95.6126 137° Southeast  Level Estimated
Sat 03:08:00 PM 10.3912 95.7034 137° Southeast  Level Estimated
Sat 03:09:00 PM 10.2950 95.7941 137° Southeast  Level Estimated
Sat 03:10:00 PM 10.1988 95.8848 137° Southeast  Level Estimated
Sat 03:11:00 PM 10.1026 95.9754 137° Southeast  Level Estimated
Sat 03:12:00 PM 10.0063 96.0660 137° Southeast  Level Estimated
Sat 03:13:00 PM 9.9101 96.1565 137° Southeast  Level Estimated
Sat 03:14:00 PM 9.8137 96.2470 137° Southeast  Level Estimated
Sat 03:15:00 PM 9.7174 96.3374 137° Southeast  Level Estimated
Sat 03:16:00 PM 9.6211 96.4278 137° Southeast  Level Estimated
Sat 03:17:00 PM 9.5247 96.5181 137° Southeast  Level Estimated
Sat 03:18:00 PM 9.4283 96.6083 137° Southeast  Level Estimated
Sat 03:19:00 PM 9.3319 96.6985 137° Southeast  Level Estimated
Sat 03:19:50 PM 9.7970 96.7400 137° Southeast 450 518 41,000  Level FlightAware ADS-B
Sat 03:20:00 PM 9.2354 96.7887 137° Southeast  Level Estimated
Sat 03:20:54 PM 9.6950 96.8300 139° Southeast 445 512 41,000  Level FlightAware ADS-B
Sat 03:21:00 PM 9.1389 96.8788 137° Southeast  Level Estimated
Sat 03:22:00 PM 9.6110 96.9070 138° Southeast 445 512 41,000  Level FlightAware ADS-B
Sat 03:22:24 PM 9.5800 96.9350 138° Southeast 445 512 41,000  Level FlightAware ADS-B
Sat 03:23:16 PM 9.4740 97.0250 140° Southeast 449 517 41,000  Level FlightAware ADS-B
Sat 03:23:54 PM 9.4140 97.0780 139° Southeast 449 517 41,000  Level FlightAware ADS-B
Sat 03:24:24 PM 9.3700 97.1170 139° Southeast 447 514 41,000  Level FlightAware ADS-B
Sat 03:25:00 PM 9.3100 97.1700 139° Southeast 449 517 41,000  Level FlightAware ADS-B
Sat 03:26:00 PM 9.2170 97.2520 139° Southeast 445 512 41,000  Level FlightAware ADS-B
Sat 03:26:58 PM 9.1260 97.3320 139° Southeast 445 512 41,000  Level FlightAware ADS-B
Sat 03:27:30 PM 9.0770 97.3750 139° Southeast 442 509 41,000  Level FlightAware ADS-B
Sat 03:28:32 PM 8.9810 97.4600 139° Southeast 445 512 41,000  Level FlightAware ADS-B
Sat 03:29:00 PM 8.9370 97.4980 140° Southeast 446 513 41,000  Level FlightAware ADS-B
Sat 03:29:30 PM 8.8900 97.5400 139° Southeast 447 514 41,000  Level FlightAware ADS-B
Sat 03:30:10 PM 8.8310 97.5920 139° Southeast 447 514 41,000  Level FlightAware ADS-B
Sat 03:30:42 PM 8.7770 97.6380 140° Southeast 448 516 41,000  Level FlightAware ADS-B
Sat 03:31:14 PM 8.7270 97.6820 139° Southeast 448 516 41,000  Level FlightAware ADS-B
Sat 03:32:20 PM 8.6240 97.7730 139° Southeast 445 512 41,000  Level FlightAware ADS-B
Sat 03:32:56 PM 8.5680 97.8220 139° Southeast 441 507 41,000  Level FlightAware ADS-B
Sat 03:33:28 PM 8.5190 97.8650 139° Southeast 440 506 41,000  Level FlightAware ADS-B
Sat 03:34:04 PM 8.4630 97.9140 139° Southeast 442 509 41,000  Level FlightAware ADS-B
Sat 03:34:43 PM 8.4030 97.9660 139° Southeast 445 512 41,000  Level FlightAware ADS-B
Sat 03:35:16 PM 8.3510 98.0120 139° Southeast 444 511 41,000  Level FlightAware ADS-B
Sat 03:35:51 PM 8.2970 98.0590 139° Southeast 444 511 41,000  Level FlightAware ADS-B
Sat 03:36:20 PM 8.2530 98.0980 139° Southeast 442 509 41,000  Level FlightAware ADS-B
Sat 03:36:56 PM 8.1960 98.1470 140° Southeast 441 507 41,000  Level FlightAware ADS-B
Sat 03:37:28 PM 8.1460 98.1910 139° Southeast 442 509 41,000  Level FlightAware ADS-B
Sat 03:38:04 PM 8.0910 98.2390 139° Southeast 442 509 41,000  Level FlightAware ADS-B
Sat 03:39:00 PM 8.0040 98.3150 139° Southeast 443 510 41,000  Level FlightAware ADS-B
Sat 03:39:30 PM 7.9590 98.3550 139° Southeast 443 510 41,000  Level FlightAware ADS-B
Sat 03:40:16 PM 7.9010 98.4290 128° Southeast 443 510 41,000  Level FlightAware ADS-B
Sat 03:41:02 PM 7.8430 98.5050 128° Southeast 442 509 41,000  Level FlightAware ADS-B
Sat 03:42:18 PM 7.7230 98.6070 140° Southeast 442 509 41,000  Level FlightAware ADS-B
Sat 03:42:58 PM 7.6600 98.6620 139° Southeast 440 506 41,000  Level FlightAware ADS-B
Sat 03:43:46 PM 7.5860 98.7240 140° Southeast 443 510 41,000  Level FlightAware ADS-B
Sat 03:44:51 PM 7.4820 98.8100 141° Southeast 448 516 41,000  Level FlightAware ADS-B
Sat 03:45:16 PM 7.4420 98.8440 140° Southeast 448 516 41,000  Level FlightAware ADS-B
Sat 03:46:08 PM 7.3570 98.9140 141° Southeast 445 512 41,000  Level FlightAware ADS-B
Sat 03:47:00 PM 7.2760 98.9820 140° Southeast 443 510 41,000  Level FlightAware ADS-B
Sat 03:47:32 PM 7.2260 99.0230 141° Southeast 444 511 41,000  Level FlightAware ADS-B
Sat 03:48:08 PM 7.1690 99.0710 140° Southeast 440 506 41,000  Level FlightAware ADS-B
Sat 03:49:00 PM 7.0880 99.1380 141° Southeast 435 501 41,000  Level FlightAware ADS-B
Sat 03:50:04 PM 6.9870 99.2220 140° Southeast 440 506 41,000  Level FlightAware ADS-B
Sat 03:50:40 PM 6.9330 99.2670 140° Southeast 442 509 41,000  Level FlightAware ADS-B
Sat 03:51:40 PM 6.8360 99.3480 140° Southeast 442 509 41,000  Level FlightAware ADS-B
Sat 03:52:28 PM 6.7600 99.4110 141° Southeast 440 506 41,000  Level FlightAware ADS-B
Sat 03:52:48 PM 6.7320 99.4350 140° Southeast 440 506 41,000  Level FlightAware ADS-B
Sat 03:53:10 PM 6.6960 99.4640 141° Southeast 442 509 41,000  Level FlightAware ADS-B
Sat 03:53:51 PM 6.6340 99.5160 140° Southeast 440 506 41,000  Level FlightAware ADS-B
Sat 03:54:51 PM 6.5360 99.5970 141° Southeast 438 504 41,000  Level FlightAware ADS-B
Sat 03:55:26 PM 6.4830 99.6410 140° Southeast 438 504 41,000  Level FlightAware ADS-B
Sat 03:55:56 PM 6.4360 99.6800 140° Southeast 440 506 41,000  Level FlightAware ADS-B
Sat 03:56:46 PM 6.3540 99.7420 143° Southeast 441 507 41,000  Level FlightAware ADS-B
Sat 03:57:21 PM 6.2930 99.7840 146° Southeast 440 506 41,000  Level FlightAware ADS-B
Sat 03:57:51 PM 6.2450 99.8190 144° Southeast 442 509 41,000  Level FlightAware ADS-B
Sat 03:59:01 PM 6.1270 99.9030 145° Southeast 444 511 41,000  Level FlightAware ADS-B
Sat 04:00:01 PM 6.0260 99.9760 144° Southeast 447 514 41,000  Level FlightAware ADS-B
Sat 04:00:31 PM 5.9800 100.0090 144° Southeast 449 517 41,000  Level FlightAware ADS-B
Sat 04:01:01 PM 5.9300 100.0450 144° Southeast 448 516 41,000  Level FlightAware ADS-B
Sat 04:01:41 PM 5.8570 100.0980 144° Southeast 450 518 41,000  Level FlightAware ADS-B
Sat 04:02:36 PM 5.7760 100.1800 135° Southeast 451 519 41,000  Level FlightAware ADS-B
Sat 04:03:31 PM 5.6970 100.2650 133° Southeast 454 522 41,000  Level FlightAware ADS-B
Sat 04:04:26 PM 5.6240 100.3560 129° Southeast 451 519 41,000  Level FlightAware ADS-B
Sat 04:05:21 PM 5.5510 100.4420 130° Southeast 437 503 41,000  Level FlightAware ADS-B
Sat 04:06:26 PM 5.4520 100.5270 139° Southeast 438 504 41,000  Level FlightAware ADS-B
Sat 04:06:51 PM 5.4110 100.5570 144° Southeast 439 505 41,000  Level FlightAware ADS-B
Sat 04:07:51 PM 5.3100 100.6260 146° Southeast 445 512 41,000  Level FlightAware ADS-B
Sat 04:08:16 PM 5.2660 100.6560 146° Southeast 445 512 41,000  Level FlightAware ADS-B
Sat 04:08:56 PM 5.1980 100.7010 147° Southeast 444 511 41,000  Level FlightAware ADS-B
Sat 04:09:46 PM 5.1120 100.7600 146° Southeast 442 509 41,000  Level FlightAware ADS-B
Sat 04:10:26 PM 5.0470 100.8040 146° Southeast 445 512 41,000  Level FlightAware ADS-B
Sat 04:11:01 PM 4.9850 100.8460 146° Southeast 444 511 41,000  Level FlightAware ADS-B
Sat 04:12:03 PM 4.8770 100.9190 146° Southeast 446 513 41,000  Level FlightAware ADS-B
Sat 04:12:56 PM 4.7880 100.9790 146° Southeast 446 513 41,000  Level FlightAware ADS-B
Sat 04:13:28 PM 4.7320 101.0170 146° Southeast 447 514 41,000  Level FlightAware ADS-B
Sat 04:14:19 PM 4.6430 101.0780 146° Southeast 451 519 41,000  Level FlightAware ADS-B
Sat 04:14:48 PM 4.5940 101.1110 146° Southeast 453 521 41,000  Level FlightAware ADS-B
Sat 04:15:39 PM 4.5030 101.1720 146° Southeast 458 527 41,000  Level FlightAware ADS-B
Sat 04:16:08 PM 4.4540 101.2060 145° Southeast 459 528 41,000  Level FlightAware ADS-B
Sat 04:16:59 PM 4.3620 101.2680 146° Southeast 460 529 41,000  Level FlightAware ADS-B
Sat 04:17:47 PM 4.2810 101.3230 146° Southeast 461 531 41,000  Level FlightAware ADS-B
Sat 04:18:43 PM 4.1800 101.3910 146° Southeast 462 532 41,000  Level FlightAware ADS-B
Sat 04:19:07 PM 4.1350 101.4220 146° Southeast 465 535 41,000  Level FlightAware ADS-B
Sat 04:19:41 PM 4.0740 101.4630 146° Southeast 466 536 41,000  Level FlightAware ADS-B
Sat 04:20:42 PM 3.9660 101.5360 146° Southeast 467 537 41,000  Level FlightAware ADS-B
Sat 04:21:27 PM 3.8850 101.5900 146° Southeast 467 537 41,000  Level FlightAware ADS-B
Sat 04:21:55 PM 3.8360 101.6230 146° Southeast 467 537 41,000  Level FlightAware ADS-B
Sat 04:22:59 PM 3.7230 101.7000 146° Southeast 442 509 41,000  Level FlightAware ADS-B
Sat 04:23:31 PM 3.6680 101.7370 146° Southeast 441 507 41,000  Level FlightAware ADS-B
Sat 04:24:34 PM 3.5620 101.8090 146° Southeast 447 514 41,000  Level FlightAware ADS-B
Sat 04:25:20 PM 3.4830 101.8620 146° Southeast 455 524 41,000  Level FlightAware ADS-B
Sat 04:26:18 PM 3.3920 101.9470 137° Southeast 458 527 41,000  Level FlightAware ADS-B
Sat 04:26:43 PM 3.3580 101.9820 134° Southeast 457 526 41,000  Level FlightAware ADS-B
Sat 04:27:48 PM 3.2600 102.0810 135° Southeast 455 524 41,000  Level FlightAware ADS-B
Sat 04:28:33 PM 3.1920 102.1500 135° Southeast 453 521 41,000  Level FlightAware ADS-B
Sat 04:28:58 PM 3.1550 102.1880 134° Southeast 454 522 41,000  Level FlightAware ADS-B
Sat 04:29:43 PM 3.0900 102.2540 135° Southeast 452 520 41,000  Level FlightAware ADS-B
Sat 04:30:28 PM 3.0270 102.3190 134° Southeast 454 522 41,000  Level FlightAware ADS-B
Sat 04:31:33 PM 2.9210 102.4060 141° Southeast 456 525 41,000  Level FlightAware ADS-B
Sat 04:32:18 PM 2.8400 102.4610 146° Southeast 457 526 41,000 -171 Level FlightAware ADS-B
Sat 04:33:18 PM 2.7350 102.5350 145° Southeast 454 522 40,700 -1,380 Descending FlightAware ADS-B
Sat 04:33:58 PM 2.6680 102.5840 144° Southeast 462 532 38,700 -1,871 Descending FlightAware ADS-B
Sat 04:34:51 PM 2.6010 102.6320 144° Southeast 469 540 37,800 -1,596 Descending FlightAware ADS-B
Sat 04:35:32 PM 2.5270 102.6850 144° Southeast 477 549 36,200 -1,521 Descending FlightAware ADS-B
Sat 04:36:02 PM 2.4810 102.7180 144° Southeast 475 547 36,000 -1,286 Descending FlightAware ADS-B
Sat 04:36:42 PM 2.4020 102.7730 145° Southeast 469 540 34,700 -2,308 Descending FlightAware ADS-B
Sat 04:37:33 PM 2.3080 102.8380 145° Southeast 466 536 32,500 -2,000 Descending FlightAware ADS-B
Sat 04:38:03 PM 2.2520 102.8770 145° Southeast 467 537 32,000 -1,625 Descending FlightAware ADS-B
Sat 04:39:09 PM 2.1460 102.9670 140° Southeast 459 528 29,900 -1,755 Descending FlightAware ADS-B
Sat 04:39:49 PM 2.0920 103.0320 130° Southeast 450 518 28,900 -1,556 Descending FlightAware ADS-B
Sat 04:40:30 PM 2.0430 103.0920 129° Southeast 437 503 27,800 -1,846 Descending FlightAware ADS-B
Sat 04:41:20 PM 1.9930 103.1520 130° Southeast 432 497 26,100 -3,386 Descending FlightAware ADS-B
Sat 04:42:11 PM 1.8990 103.2830 126° Southeast 439 505 22,100 -3,873 Descending FlightAware ADS-B
Sat 04:42:39 PM 1.8700 103.3310 121° Southeast 430 495 21,000 -2,786 Descending FlightAware ADS-B
Sat 04:43:35 PM 1.8150 103.4280 120° Southeast 422 486 18,200 -3,000 Descending FlightAware ADS-B
Sat 04:44:27 PM 1.7650 103.5120 121° Southeast 392 451 15,600 -3,240 Descending FlightAware ADS-B
Sat 04:45:15 PM 1.7230 103.5860 120° Southeast 384 442 12,800 -3,288 Descending FlightAware ADS-B
Sat 04:46:11 PM 1.6790 103.6740 117° Southeast 366 421 9,900 -3,114 Descending FlightAware ADS-B
Sat 04:46:34 PM 1.6570 103.7070 124° Southeast 359 413 8,700 -2,375 Descending FlightAware ADS-B
Sat 04:46:59 PM 1.6410 103.7410 115° Southeast 333 383 8,000 -1,250 Descending FlightAware ADS-B
Sat 04:47:22 PM 1.6270 103.7740 113° Southeast 308 354 7,700 -808 Descending FlightAware ADS-B
Sat 04:47:51 PM 1.6110 103.8100 114° Southeast 288 331 7,300 -792 Descending FlightAware ADS-B
Sat 04:48:15 PM 1.5990 103.8380 113° Southeast 272 313 7,000 -857 Descending FlightAware ADS-B
Sat 04:48:47 PM 1.5840 103.8720 114° Southeast 244 281 6,500 -964 Descending FlightAware ADS-B
Sat 04:49:11 PM 1.5750 103.8980 109° East 243 280 6,100 -923 Descending FlightAware ADS-B
Sat 04:49:26 PM 1.5700 103.9140 107° East 232 267 5,900 -938 Descending FlightAware ADS-B
Sat 04:49:43 PM 1.5640 103.9310 109° East 227 261 5,600 -1,000 Descending FlightAware ADS-B
Sat 04:50:08 PM 1.5570 103.9540 107° East 217 250 5,200 -1,125 Descending FlightAware ADS-B
Sat 04:50:31 PM 1.5510 103.9770 105° East 198 228 4,700 -1,714 Descending FlightAware ADS-B
Sat 04:50:57 PM 1.5440 103.9990 108° East 197 227 3,800 -1,680 Descending FlightAware ADS-B
Sat 04:51:21 PM 1.5380 104.0200 106° East 185 213 3,300 -1,250 Descending FlightAware ADS-B
Sat 04:51:45 PM 1.5260 104.0350 129° Southeast 167 192 2,800 -977 Descending FlightAware ADS-B
Sat 04:52:04 PM 1.5120 104.0380 168° South 169 194 2,600 -643 Descending FlightAware ADS-B
Sat 04:52:41 PM 1.4850 104.0350 186° South 169 194 2,200 -492 Descending FlightAware ADS-B
Sat 04:53:05 PM 1.4680 104.0280 202° Southwest 151 174 2,100 -500 Descending FlightAware ADS-B
Sat 04:53:29 PM 1.4530 104.0210 205° Southwest 141 162 1,800 -837 Descending FlightAware ADS-B
Sat 04:53:48 PM 1.4420 104.0170 200° South 140 161 1,500 -800 Descending FlightAware ADS-B
Sat 04:54:14 PM 1.4260 104.0100 204° Southwest 140 161 1,200 -720 Descending FlightAware ADS-B
Sat 04:54:38 PM 1.4120 104.0040 203° Southwest 140 161 900 -625 Descending FlightAware ADS-B
Sat 04:55:02 PM 1.3980 103.9980 203° Southwest 141 162 700 -692 Descending FlightAware ADS-B
Sat 04:55:30 PM 1.3810 103.9910 202° Southwest 141 162 300 -857 Descending FlightAware ADS-B
Sat 04:55:53 PM 1.3670 103.9850 203° Southwest 135 155 -783 Descending FlightAware ADS-B

Login

Don't have an account? Register now (free) for customized features, flight alerts, and more!